M I D A S
Marine Information and Data Acquisition System
Tripno 1100 of the Zeeleeuw from 2006-05-08 07:10:12 to 2006-05-08 14:33:40
Back to CruiseResearch ActivitiesStationsMapUnderway DataData graphs

EquipmentUnitsComment
TimeDGPSUTC
LatitudeDGPSDM.mWGS84
LongitudeDGPSDM.mWGS84
TemperatureSBE03/SBE38deg celciusITS90
ConductivitySBE21S/mITS90
SalinitySBE21 Practical Salinity Units
ChlorophylAChelsea fluorimeterg/lCalibrated in Aceton
Missing or incorrect values are displayed as -999
Sea surface data collected by the RV Zeeleeuw from 2006-05-08 07:11:03 to 2006-05-08 14:51:04
                                                                                    Next 1000 lines
Time Latitude Longitude Temperature Conductivity Salinity ChlorophylA
2006-05-08 07:11:13 51°13.6 2°56.094 19.1054 4.307831 27.846107 5.926922
2006-05-08 07:11:18 51°13.601 2°56.091 19.0923 4.307831 27.846107 5.926922
2006-05-08 07:11:23 51°13.601 2°56.088 19.0853 4.307831 27.846107 5.926922
2006-05-08 07:11:28 51°13.602 2°56.084 19.155 4.307726 27.844941 5.893212
2006-05-08 07:11:34 51°13.603 2°56.078 19.1764 4.307726 27.845754 5.893212
2006-05-08 07:11:39 51°13.604 2°56.072 19.127 4.307726 27.845754 5.926922
2006-05-08 07:11:44 51°13.604 2°56.066 19.1348 4.307621 27.844589 5.893212
2006-05-08 07:11:49 51°13.605 2°56.059 19.1561 4.307726 27.845754 5.926922
2006-05-08 07:11:54 51°13.606 2°56.052 19.1611 4.307726 27.845754 5.926922
2006-05-08 07:11:59 51°13.606 2°56.045 19.1396 4.307621 27.844995 5.893212
2006-05-08 07:12:04 51°13.607 2°56.037 19.2224 4.307621 27.844995 5.893212
2006-05-08 07:12:09 51°13.608 2°56.028 19.1845 4.307621 27.845402 5.893212
2006-05-08 07:12:14 51°13.609 2°56.02 19.2027 4.307621 27.845402 5.926922
2006-05-08 07:12:19 51°13.61 2°56.012 19.2083 4.307621 27.845809 5.926922
2006-05-08 07:12:24 51°13.611 2°56.003 19.2302 4.307621 27.845809 5.926922
2006-05-08 07:12:29 51°13.613 2°55.995 19.2464 4.307621 27.845809 5.893212
2006-05-08 07:12:34 51°13.614 2°55.986 19.1985 4.307515 27.845457 5.893212
2006-05-08 07:12:39 51°13.616 2°55.978 19.2021 4.307515 27.845457 5.893212
2006-05-08 07:12:44 51°13.618 2°55.97 19.2028 4.307515 27.845864 5.893212
2006-05-08 07:12:48 51°13.62 2°55.963 19.2021 4.30741 27.845105 5.893212
2006-05-08 07:12:54 51°13.623 2°55.953 19.2076 4.30741 27.845105 5.893212
2006-05-08 07:12:59 51°13.625 2°55.944 19.2269 4.30741 27.845918 5.893212
2006-05-08 07:13:04 51°13.628 2°55.935 19.2069 4.30741 27.845918 5.893212
2006-05-08 07:13:09 51°13.631 2°55.926 19.2 4.30741 27.845918 5.926922
2006-05-08 07:13:14 51°13.634 2°55.918 19.1993 4.307515 27.847084 5.893212
2006-05-08 07:13:19 51°13.638 2°55.909 19.2161 4.30741 27.846325 5.893212
2006-05-08 07:13:24 51°13.641 2°55.901 19.2232 4.30741 27.846325 5.893212
2006-05-08 07:13:29 51°13.645 2°55.892 19.2369 4.307304 27.845973 5.893212
2006-05-08 07:13:34 51°13.649 2°55.884 19.2379 4.30741 27.846732 5.926922
2006-05-08 07:13:39 51°13.653 2°55.875 19.2131 4.30741 27.846732 5.893212
2006-05-08 07:13:44 51°13.657 2°55.867 19.202 4.307304 27.84638 5.926922
2006-05-08 07:13:49 51°13.662 2°55.859 19.1948 4.307199 27.845621 5.893212
2006-05-08 07:13:54 51°13.666 2°55.85 19.2109 4.307199 27.845621 5.893212
2006-05-08 07:13:59 51°13.671 2°55.842 19.2048 4.307304 27.845973 5.893212
2006-05-08 07:14:04 51°13.675 2°55.833 19.2144 4.307199 27.846028 5.926922
2006-05-08 07:14:09 51°13.68 2°55.824 19.2226 4.307199 27.846028 5.893212
2006-05-08 07:14:14 51°13.685 2°55.816 19.217 4.307304 27.84638 5.926922
2006-05-08 07:14:19 51°13.689 2°55.808 19.2111 4.307094 27.845269 5.893212
2006-05-08 07:14:24 51°13.693 2°55.8 19.2124 4.307094 27.845269 5.893212
2006-05-08 07:14:29 51°13.697 2°55.793 19.185 4.307094 27.844862 5.893212
2006-05-08 07:14:34 51°13.7 2°55.785 19.1843 4.307094 27.844862 5.893212
2006-05-08 07:14:38 51°13.703 2°55.779 19.1624 4.307199 27.845621 5.859503
2006-05-08 07:14:44 51°13.707 2°55.77 19.2027 4.307094 27.845269 5.893212
2006-05-08 07:14:49 51°13.71 2°55.762 19.2214 4.307199 27.846028 5.893212
2006-05-08 07:14:54 51°13.713 2°55.755 19.1915 4.307199 27.846028 5.893212
2006-05-08 07:14:59 51°13.716 2°55.748 19.1917 4.306988 27.844916 5.893212
2006-05-08 07:15:04 51°13.718 2°55.741 19.1971 4.307094 27.845676 5.893212
2006-05-08 07:15:09 51°13.72 2°55.735 19.1759 4.306988 27.844916 5.893212
2006-05-08 07:15:14 51°13.722 2°55.729 19.1827 4.306988 27.844916 5.893212
2006-05-08 07:15:18 51°13.723 2°55.725 19.1857 4.306988 27.844916 5.893212
2006-05-08 07:15:23 51°13.725 2°55.721 19.2118 4.306988 27.844916 5.893212
2006-05-08 07:15:28 51°13.725 2°55.718 19.2255 4.306988 27.844916 5.893212
2006-05-08 07:15:33 51°13.726 2°55.715 19.2204 4.306988 27.845323 5.926922
2006-05-08 07:15:38 51°13.726 2°55.713 19.2101 4.306988 27.845323 5.893212
2006-05-08 07:15:43 51°13.727 2°55.712 19.2383 4.306777 27.843805 5.926922
2006-05-08 07:15:48 51°13.727 2°55.712 19.2527 4.306883 27.844564 5.893212
2006-05-08 07:15:54 51°13.728 2°55.712 19.2547 4.306883 27.844564 5.893212
2006-05-08 07:15:58 51°13.728 2°55.714 19.2492 4.306883 27.844971 5.893212
2006-05-08 07:16:04 51°13.729 2°55.717 19.2025 4.306883 27.844971 5.893212
2006-05-08 07:16:08 51°13.729 2°55.719 19.1601 4.306777 27.844212 5.893212
2006-05-08 07:16:13 51°13.73 2°55.721 19.1425 4.306777 27.845433 5.859503
2006-05-08 07:16:18 51°13.731 2°55.723 19.0746 4.306777 27.845433 5.893212
2006-05-08 07:16:23 51°13.731 2°55.724 19.113 4.306777 27.845433 5.893212
2006-05-08 07:16:28 51°13.731 2°55.725 19.118 4.306777 27.845433 5.893212
2006-05-08 07:16:32 51°13.732 2°55.725 19.0984 4.306777 27.845433 5.893212
2006-05-08 07:16:38 51°13.732 2°55.724 19.066 4.306777 27.845433 5.893212
2006-05-08 07:16:44 51°13.731 2°55.722 19.1705 4.306672 27.845081 5.926922
2006-05-08 07:16:48 51°13.731 2°55.721 19.1527 4.306777 27.845433 5.926922
2006-05-08 07:16:52 51°13.73 2°55.719 19.1844 4.306777 27.845433 5.926922
2006-05-08 07:16:57 51°13.73 2°55.717 19.1957 4.306672 27.845081 5.926922
2006-05-08 07:17:04 51°13.728 2°55.715 19.1874 4.306567 27.844728 5.926922
2006-05-08 07:17:09 51°13.728 2°55.713 19.1726 4.306672 27.844674 5.926922
2006-05-08 07:17:14 51°13.728 2°55.712 19.1951 4.306567 27.843914 5.926922
2006-05-08 07:17:19 51°13.728 2°55.712 19.1965 4.306567 27.844728 5.893212
2006-05-08 07:17:24 51°13.729 2°55.711 19.1966 4.306567 27.844728 5.893212
2006-05-08 07:17:29 51°13.73 2°55.711 19.1961 4.306567 27.844728 5.893212
2006-05-08 07:17:34 51°13.731 2°55.712 19.2166 4.306567 27.844728 5.893212
2006-05-08 07:17:39 51°13.733 2°55.712 19.2312 4.306567 27.844728 5.893212
2006-05-08 07:17:44 51°13.735 2°55.712 19.2541 4.306461 27.844783 5.893212
2006-05-08 07:17:48 51°13.737 2°55.712 19.2551 4.306461 27.84519 5.893212
2006-05-08 07:17:53 51°13.74 2°55.712 19.2551 4.306461 27.84519 5.893212
2006-05-08 07:17:58 51°13.743 2°55.711 19.2575 4.306461 27.84519 5.893212
2006-05-08 07:18:04 51°13.748 2°55.71 19.2813 4.306461 27.845597 5.893212
2006-05-08 07:18:08 51°13.751 2°55.709 19.2768 4.306356 27.844838 5.893212
2006-05-08 07:18:12 51°13.754 2°55.707 19.2543 4.306356 27.844838 5.926922
2006-05-08 07:18:18 51°13.759 2°55.704 19.2494 4.306461 27.84519 5.859503
2006-05-08 07:18:24 51°13.765 2°55.7 19.2513 4.306461 27.84519 5.859503
2006-05-08 07:18:27 51°13.768 2°55.698 19.2358 4.306356 27.844431 5.893212
2006-05-08 07:18:33 51°13.775 2°55.692 19.1963 4.30625 27.843671 5.893212
2006-05-08 07:18:38 51°13.782 2°55.686 19.0648 4.30625 27.843671 5.893212
2006-05-08 07:18:43 51°13.788 2°55.68 19.0277 4.30625 27.844078 5.893212
2006-05-08 07:18:48 51°13.796 2°55.674 18.9426 4.30625 27.844078 5.893212
2006-05-08 07:18:53 51°13.803 2°55.667 18.9186 4.30625 27.844078 5.893212
2006-05-08 07:18:58 51°13.811 2°55.66 18.9223 4.30625 27.844078 5.859503
2006-05-08 07:19:04 51°13.82 2°55.651 18.9289 4.306145 27.844133 5.926922
2006-05-08 07:19:08 51°13.827 2°55.645 18.9197 4.30625 27.8453 5.893212
2006-05-08 07:19:13 51°13.836 2°55.637 18.9146 4.30625 27.845707 5.893212
2006-05-08 07:19:18 51°13.844 2°55.63 18.8833 4.30625 27.845707 5.893212
2006-05-08 07:19:23 51°13.854 2°55.622 18.9261 4.30625 27.845707 5.893212
2006-05-08 07:19:28 51°13.863 2°55.614 18.9781 4.306145 27.845354 5.893212
2006-05-08 07:19:33 51°13.872 2°55.607 18.9544 4.306145 27.845761 5.893212
2006-05-08 07:19:38 51°13.882 2°55.599 18.927 4.306145 27.845761 5.926922
2006-05-08 07:19:44 51°13.894 2°55.59 18.9579 4.30604 27.845409 5.859503
2006-05-08 07:19:48 51°13.902 2°55.584 18.9764 4.30604 27.845409 5.893212
2006-05-08 07:19:52 51°13.91 2°55.578 18.9873 4.30604 27.845409 5.893212
2006-05-08 07:19:57 51°13.92 2°55.571 18.9987 4.30604 27.845816 5.893212
2006-05-08 07:20:03 51°13.932 2°55.562 18.9983 4.30604 27.845816 5.893212
2006-05-08 07:20:08 51°13.942 2°55.554 18.9861 4.30604 27.846223 5.893212
2006-05-08 07:20:14 51°13.954 2°55.545 18.9805 4.305934 27.845057 5.893212
2006-05-08 07:20:18 51°13.962 2°55.539 18.9413 4.305934 27.845464 5.926922
2006-05-08 07:20:23 51°13.973 2°55.532 18.943 4.305934 27.845464 5.926922
2006-05-08 07:20:28 51°13.982 2°55.524 18.953 4.30604 27.846223 5.893212
2006-05-08 07:20:32 51°13.99 2°55.518 19.0151 4.305829 27.845112 5.926922
2006-05-08 07:20:38 51°14.001 2°55.51 19.0439 4.305829 27.845112 5.893212
2006-05-08 07:20:43 51°14.011 2°55.503 19.0718 4.305934 27.846685 5.859503
2006-05-08 07:20:48 51°14.02 2°55.496 19.1206 4.305829 27.845519 5.893212
2006-05-08 07:20:52 51°14.027 2°55.491 19.1745 4.305829 27.845519 5.893212
2006-05-08 07:20:58 51°14.038 2°55.484 19.156 4.305829 27.845519 5.893212
2006-05-08 07:21:03 51°14.047 2°55.477 19.1624 4.305934 27.846278 5.893212
2006-05-08 07:21:08 51°14.056 2°55.471 19.1644 4.305829 27.845926 5.893212
2006-05-08 07:21:13 51°14.066 2°55.464 19.1358 4.305829 27.845112 5.926922
2006-05-08 07:21:18 51°14.076 2°55.457 19.116 4.305723 27.844759 5.926922
2006-05-08 07:21:23 51°14.086 2°55.449 18.9901 4.305723 27.844759 5.926922
2006-05-08 07:21:28 51°14.097 2°55.441 18.9755 4.305723 27.844759 5.893212
2006-05-08 07:21:34 51°14.11 2°55.432 19.0344 4.305723 27.845166 5.893212
2006-05-08 07:21:38 51°14.119 2°55.425 19.0476 4.305723 27.845166 5.893212
2006-05-08 07:21:43 51°14.131 2°55.417 19.1027 4.305618 27.844814 5.926922
2006-05-08 07:21:47 51°14.14 2°55.41 19.1031 4.305618 27.845221 5.893212
2006-05-08 07:21:53 51°14.153 2°55.399 19.1746 4.305618 27.845221 5.893212
2006-05-08 07:21:58 51°14.165 2°55.389 19.0596 4.305618 27.845628 5.893212
2006-05-08 07:22:03 51°14.176 2°55.378 19.1203 4.305618 27.845628 5.893212
2006-05-08 07:22:08 51°14.187 2°55.367 19.0892 4.305513 27.845276 5.926922
2006-05-08 07:22:14 51°14.201 2°55.353 19.1357 4.305723 27.846388 5.893212
2006-05-08 07:22:18 51°14.21 2°55.343 19.1301 4.305618 27.845628 5.859503
2006-05-08 07:22:23 51°14.22 2°55.33 19.1168 4.305618 27.845628 5.859503
2006-05-08 07:22:28 51°14.231 2°55.316 19.0737 4.305513 27.844869 5.893212
2006-05-08 07:22:32 51°14.239 2°55.304 19.0586 4.305513 27.845276 5.859503
2006-05-08 07:22:38 51°14.251 2°55.286 19.0808 4.305407 27.844924 5.893212
2006-05-08 07:22:43 51°14.261 2°55.27 19.1358 4.305513 27.845276 5.926922
2006-05-08 07:22:48 51°14.271 2°55.253 19.1393 4.305407 27.844924 5.926922
2006-05-08 07:22:52 51°14.278 2°55.24 19.0365 4.305407 27.844924 5.926922
2006-05-08 07:22:58 51°14.289 2°55.218 19.0366 4.305407 27.845331 5.926922
2006-05-08 07:23:03 51°14.297 2°55.2 19.1133 4.305302 27.844571 5.893212
2006-05-08 07:23:08 51°14.306 2°55.181 18.89 4.305407 27.844924 5.859503
2006-05-08 07:23:12 51°14.313 2°55.165 18.8832 4.305302 27.844979 5.859503
2006-05-08 07:23:18 51°14.324 2°55.141 18.8781 4.305407 27.844924 5.859503
2006-05-08 07:23:24 51°14.334 2°55.117 18.9953 4.305407 27.844924 5.859503
2006-05-08 07:23:28 51°14.341 2°55.101 19.005 4.305196 27.843405 5.893212
2006-05-08 07:23:33 51°14.35 2°55.08 18.9914 4.305618 27.846035 5.926922
2006-05-08 07:23:38 51°14.359 2°55.058 18.7725 4.304985 27.8427 5.893212
2006-05-08 07:23:44 51°14.37 2°55.034 18.8799 4.305302 27.844979 5.893212
2006-05-08 07:23:48 51°14.378 2°55.018 18.7044 4.305513 27.84609 5.926922
2006-05-08 07:23:53 51°14.389 2°54.999 18.8116 4.305513 27.84609 5.926922
2006-05-08 07:23:58 51°14.401 2°54.981 18.7996 4.30488 27.841127 5.859503
2006-05-08 07:24:03 51°14.412 2°54.964 18.8928 4.305302 27.844164 5.926922
2006-05-08 07:24:08 51°14.425 2°54.948 18.8896 4.305302 27.844571 5.893212
2006-05-08 07:24:13 51°14.437 2°54.931 18.8201 4.305302 27.845386 5.893212
2006-05-08 07:24:18 51°14.45 2°54.916 18.7216 4.305091 27.844274 5.893212
2006-05-08 07:24:23 51°14.463 2°54.9 18.8331 4.305091 27.844274 5.893212
2006-05-08 07:24:28 51°14.476 2°54.887 18.7045 4.305302 27.845793 5.893212
2006-05-08 07:24:33 51°14.49 2°54.875 18.7956 4.304669 27.841236 5.893212
2006-05-08 07:24:38 51°14.505 2°54.865 18.8813 4.305196 27.845033 5.926922
2006-05-08 07:24:42 51°14.518 2°54.858 18.7222 4.305091 27.844274 5.926922
2006-05-08 07:24:48 51°14.536 2°54.846 18.6867 4.30488 27.843976 5.893212
2006-05-08 07:24:52 51°14.549 2°54.839 18.7132 4.30488 27.843976 5.893212
2006-05-08 07:24:58 51°14.568 2°54.827 18.757 4.305196 27.846255 5.926922
2006-05-08 07:25:03 51°14.584 2°54.816 18.7824 4.305091 27.845496 5.893212
2006-05-08 07:25:08 51°14.599 2°54.804 18.821 4.30488 27.844384 5.893212
2006-05-08 07:25:13 51°14.615 2°54.791 18.7791 4.304986 27.845143 5.859503
2006-05-08 07:25:18 51°14.63 2°54.777 18.8254 4.30488 27.844384 5.893212
2006-05-08 07:25:23 51°14.645 2°54.762 18.7505 4.30488 27.844384 5.893212
2006-05-08 07:25:28 51°14.659 2°54.747 18.7583 4.304775 27.844031 5.893212
2006-05-08 07:25:32 51°14.671 2°54.734 18.7423 4.304775 27.844439 5.893212
2006-05-08 07:25:38 51°14.688 2°54.713 18.7539 4.304775 27.844439 5.926922
2006-05-08 07:25:43 51°14.702 2°54.696 18.6575 4.304775 27.843624 5.926922
2006-05-08 07:25:48 51°14.716 2°54.679 18.7281 4.304669 27.843272 5.893212
2006-05-08 07:25:52 51°14.727 2°54.665 18.7205 4.304669 27.843272 5.893212
2006-05-08 07:25:57 51°14.742 2°54.648 16.0869 4.30488 27.844791 5.893212
2006-05-08 07:26:04 51°14.762 2°54.625 14.5064 4.307198 27.811081 9.466409
2006-05-08 07:26:08 51°14.774 2°54.612 13.5169 4.275048 27.69031 11.927195
2006-05-08 07:26:14 51°14.792 2°54.593 13.2789 4.259448 27.615469 12.365418
2006-05-08 07:26:18 51°14.804 2°54.58 13.1069 3.876031 25.18402 13.91605
2006-05-08 07:26:23 51°14.819 2°54.564 12.9496 3.876031 25.18402 13.91605
2006-05-08 07:26:28 51°14.834 2°54.549 12.8833 4.064067 28.016362 9.163024
2006-05-08 07:26:33 51°14.849 2°54.533 12.7495 4.101619 29.85602 8.792221
2006-05-08 07:26:37 51°14.861 2°54.521 12.7509 4.08794 31.059047 9.196734
2006-05-08 07:26:42 51°14.876 2°54.505 12.6733 3.866753 30.296269 9.028187
2006-05-08 07:26:48 51°14.894 2°54.486 12.6628 3.811657 30.661471 8.960768
2006-05-08 07:26:52 51°14.906 2°54.474 12.617 3.811657 30.661471 8.960768
2006-05-08 07:26:58 51°14.924 2°54.455 12.6406 3.750238 30.626202 8.893349
2006-05-08 07:27:03 51°14.939 2°54.439 12.5538 3.700832 30.575694 8.82593
2006-05-08 07:27:08 51°14.955 2°54.423 12.5025 3.703995 30.795006 8.758512
2006-05-08 07:27:13 51°14.97 2°54.407 12.5586 3.680398 30.689834 8.758512
2006-05-08 07:27:18 51°14.985 2°54.392 12.5316 3.662385 30.651031 8.724802
2006-05-08 07:27:24 51°15.003 2°54.373 12.46 3.662385 30.651031 8.724802
2006-05-08 07:27:28 51°15.015 2°54.361 12.4605 3.649007 30.608987 8.724802
2006-05-08 07:27:34 51°15.034 2°54.343 12.4509 3.638474 30.572698 8.657383
2006-05-08 07:27:38 51°15.046 2°54.331 12.423 3.626149 30.502039 8.691093
2006-05-08 07:27:44 51°15.065 2°54.313 12.4318 3.608557 30.386355 8.724802
2006-05-08 07:27:48 51°15.077 2°54.302 12.3958 3.615826 30.48945 8.691093
2006-05-08 07:27:52 51°15.09 2°54.291 12.38 3.615826 30.48945 8.691093
2006-05-08 07:27:58 51°15.109 2°54.274 12.3991 3.610138 30.446831 8.724802
2006-05-08 07:28:04 51°15.128 2°54.256 12.4033 3.606873 30.455133 8.792221
2006-05-08 07:28:08 51°15.14 2°54.245 12.3664 3.604029 30.454843 8.792221
2006-05-08 07:28:12 51°15.152 2°54.233 12.3627 3.602133 30.455911 8.758512
2006-05-08 07:28:18 51°15.171 2°54.215 12.363 3.595919 30.42081 8.792221
2006-05-08 07:28:24 51°15.189 2°54.197 12.3076 3.595919 30.42081 8.792221
2006-05-08 07:28:28 51°15.202 2°54.186 12.2573 3.597288 30.456979 8.792221
2006-05-08 07:28:31 51°15.211 2°54.177 12.2523 3.592759 30.429505 8.792221
2006-05-08 07:28:38 51°15.232 2°54.154 12.2173 3.593286 30.438241 8.758512
2006-05-08 07:28:42 51°15.243 2°54.141 12.2175 3.58823 30.410834 8.758512
2006-05-08 07:28:48 51°15.261 2°54.122 12.2296 3.576853 30.315726 8.691093
2006-05-08 07:28:54 51°15.279 2°54.102 12.2048 3.576853 30.315726 8.691093
2006-05-08 07:28:58 51°15.291 2°54.09 12.2248 3.573272 30.296471 8.691093
2006-05-08 07:29:02 51°15.303 2°54.078 12.2021 3.57717 30.372864 8.657383
2006-05-08 07:29:08 51°15.321 2°54.061 12.209 3.587494 30.494924 8.623674
2006-05-08 07:29:14 51°15.34 2°54.045 12.1901 3.583807 30.484215 8.589965
2006-05-08 07:29:17 51°15.35 2°54.037 12.1936 3.59392 30.602055 8.522546
2006-05-08 07:29:24 51°15.372 2°54.019 12.1575 3.59392 30.602055 8.522546
2006-05-08 07:29:28 51°15.385 2°54.009 12.1333 3.591497 30.592529 8.488836
2006-05-08 07:29:33 51°15.401 2°53.996 12.1514 3.587811 30.562749 8.488836
2006-05-08 07:29:39 51°15.42 2°53.981 12.1299 3.578646 30.487507 8.387708
2006-05-08 07:29:44 51°15.437 2°53.969 12.1242 3.591708 30.616859 8.387708
2006-05-08 07:29:48 51°15.45 2°53.959 12.1325 3.602032 30.719102 8.353999
2006-05-08 07:29:52 51°15.463 2°53.95 12.127 3.602032 30.719102 8.353999
2006-05-08 07:29:56 51°15.476 2°53.94 12.1241 3.601611 30.731142 8.320289
2006-05-08 07:30:03 51°15.499 2°53.923 12.101 3.600136 30.737059 8.320289
2006-05-08 07:30:07 51°15.511 2°53.913 12.1201 3.600031 30.750838 8.320289
2006-05-08 07:30:14 51°15.534 2°53.896 12.1329 3.595607 30.722352 8.252871
2006-05-08 07:30:18 51°15.547 2°53.886 12.1031 3.589497 30.672716 8.252871
2006-05-08 07:30:24 51°15.567 2°53.871 12.1044 3.589497 30.672716 8.252871
2006-05-08 07:30:27 51°15.577 2°53.863 12.1038 3.594765 30.730424 8.219161
2006-05-08 07:30:34 51°15.599 2°53.844 12.1097 3.584863 30.636424 8.185452
2006-05-08 07:30:38 51°15.612 2°53.834 12.086 3.583388 30.627555 8.219161
2006-05-08 07:30:44 51°15.631 2°53.818 12.0841 3.599189 30.782745 8.151742
2006-05-08 07:30:49 51°15.647 2°53.804 12.0818 3.595291 30.743146 8.185452
2006-05-08 07:30:54 51°15.663 2°53.791 12.0619 3.595291 30.743146 8.185452
2006-05-08 07:30:58 51°15.676 2°53.781 12.0652 3.596029 30.756588 8.219161
2006-05-08 07:31:03 51°15.692 2°53.768 12.035 3.602244 30.822094 8.185452
2006-05-08 07:31:08 51°15.708 2°53.756 12.0135 3.589393 30.707697 8.185452
2006-05-08 07:31:14 51°15.727 2°53.741 11.9866 3.594028 30.752386 8.185452
2006-05-08 07:31:18 51°15.74 2°53.73 11.9732 3.592553 30.744167 8.219161
2006-05-08 07:31:24 51°15.759 2°53.715 11.9492 3.592553 30.744167 8.219161
2006-05-08 07:31:28 51°15.772 2°53.704 11.947 3.588655 30.716135 8.185452
2006-05-08 07:31:34 51°15.791 2°53.689 11.9578 3.59171 30.754848 8.28658
2006-05-08 07:31:38 51°15.804 2°53.678 11.9333 3.589182 30.740474 8.421418
2006-05-08 07:31:44 51°15.823 2°53.663 11.9156 3.593818 30.798137 8.556255
2006-05-08 07:31:48 51°15.836 2°53.652 11.9063 3.592975 30.81534 8.657383
2006-05-08 07:31:54 51°15.855 2°53.637 11.9102 3.592975 30.81534 8.657383
2006-05-08 07:31:58 51°15.868 2°53.627 11.9053 3.594661 30.845005 8.758512
2006-05-08 07:32:04 51°15.888 2°53.611 11.8833 3.577912 30.711244 8.85964
2006-05-08 07:32:08 51°15.901 2°53.601 11.9025 3.588762 30.822477 8.893349
2006-05-08 07:32:14 51°15.92 2°53.586 11.8865 3.599296 30.9308 8.960768
2006-05-08 07:32:18 51°15.933 2°53.576 11.8907 3.594345 30.891996 8.994477
2006-05-08 07:32:23 51°15.949 2°53.563 11.882 3.594345 30.891996 8.994477
2006-05-08 07:32:28 51°15.965 2°53.55 11.8757 3.590554 30.872698 9.061896
2006-05-08 07:32:32 51°15.978 2°53.541 11.8831 3.587499 30.850675 9.061896
2006-05-08 07:32:36 51°15.991 2°53.531 11.8781 3.587499 30.857179 9.129315
2006-05-08 07:32:43 51°16.013 2°53.513 11.878 3.590764 30.895543 9.095606
2006-05-08 07:32:47 51°16.026 2°53.502 11.8711 3.595505 30.944767 9.196734
2006-05-08 07:32:54 51°16.048 2°53.484 11.8762 3.595505 30.944767 9.196734
2006-05-08 07:32:58 51°16.061 2°53.473 11.8828 3.59403 30.93393 9.163024
2006-05-08 07:33:04 51°16.08 2°53.457 11.8701 3.590449 30.903602 9.163024
2006-05-08 07:33:08 51°16.093 2°53.447 11.8709 3.589817 30.902122 9.129315
2006-05-08 07:33:14 51°16.112 2°53.431 11.8568 3.584234 30.854605 9.163024
2006-05-08 07:33:18 51°16.125 2°53.421 11.8542 3.592134 30.931462 9.196734
2006-05-08 07:33:24 51°16.144 2°53.405 11.8508 3.592134 30.931462 9.196734
2006-05-08 07:33:28 51°16.157 2°53.395 11.8412 3.593504 30.949133 9.095606
2006-05-08 07:33:34 51°16.177 2°53.38 11.8282 3.58771 30.893712 9.061896
2006-05-08 07:33:38 51°16.189 2°53.37 11.8434 3.596137 30.975636 8.994477
2006-05-08 07:33:44 51°16.209 2°53.355 11.8471 3.590028 30.920447 8.927059
2006-05-08 07:33:48 51°16.222 2°53.346 11.8217 3.592134 30.948445 8.85964
2006-05-08 07:33:54 51°16.241 2°53.331 11.7985 3.592134 30.948445 8.85964
2006-05-08 07:33:57 51°16.251 2°53.324 11.7714 3.591186 30.945253 8.792221
2006-05-08 07:34:04 51°16.274 2°53.308 11.7718 3.598034 31.010802 8.657383
2006-05-08 07:34:08 51°16.287 2°53.298 11.7408 3.586236 30.905703 8.657383
2006-05-08 07:34:14 51°16.306 2°53.284 11.7179 3.600562 31.04747 8.556255
2006-05-08 07:34:18 51°16.319 2°53.274 11.6948 3.601615 31.058218 8.488836
2006-05-08 07:34:24 51°16.338 2°53.259 11.6759 3.601615 31.058218 8.488836
2006-05-08 07:34:28 51°16.351 2°53.249 11.6532 3.594874 31.001502 8.455127
2006-05-08 07:34:34 51°16.37 2°53.234 11.623 3.595822 31.028952 8.421418
2006-05-08 07:34:38 51°16.383 2°53.224 11.5951 3.597929 31.067551 8.387708
2006-05-08 07:34:44 51°16.402 2°53.208 11.576 3.604671 31.142121 8.421418
2006-05-08 07:34:48 51°16.414 2°53.198 11.5727 3.603723 31.152154 8.421418
2006-05-08 07:34:52 51°16.427 2°53.188 11.592 3.603723 31.152154 8.421418
2006-05-08 07:34:56 51°16.44 2°53.178 11.5646 3.61036 31.236423 8.421418
2006-05-08 07:35:04 51°16.465 2°53.158 11.5468 3.605831 31.220693 8.455127
2006-05-08 07:35:08 51°16.478 2°53.148 11.5438 3.607938 31.264194 8.488836
2006-05-08 07:35:14 51°16.497 2°53.133 11.5515 3.613521 31.341932 8.488836
2006-05-08 07:35:18 51°16.51 2°53.123 11.53 3.60836 31.312833 8.522546
2006-05-08 07:35:23 51°16.526 2°53.11 11.5284 3.60836 31.312833 8.522546
2006-05-08 07:35:27 51°16.538 2°53.1 11.5182 3.609308 31.336648 8.488836
2006-05-08 07:35:34 51°16.561 2°53.081 11.5103 3.610046 31.353777 8.488836
2006-05-08 07:35:39 51°16.576 2°53.069 11.5203 3.593823 31.205915 8.455127
2006-05-08 07:35:44 51°16.592 2°53.056 11.5092 3.606148 31.337528 8.421418
2006-05-08 07:35:48 51°16.605 2°53.046 11.5309 3.60204 31.303201 8.455127
2006-05-08 07:35:52 51°16.618 2°53.036 11.5 3.60204 31.303201 8.455127
2006-05-08 07:35:56 51°16.631 2°53.025 11.4934 3.610678 31.396665 8.353999
2006-05-08 07:36:03 51°16.653 2°53.008 11.4893 3.610573 31.405696 8.353999
2006-05-08 07:36:07 51°16.666 2°52.997 11.4899 3.603831 31.344555 8.387708
2006-05-08 07:36:14 51°16.688 2°52.979 11.4784 3.600566 31.319014 8.353999
2006-05-08 07:36:18 51°16.701 2°52.969 11.5053 3.609941 31.411652 8.387708
2006-05-08 07:36:24 51°16.72 2°52.955 11.4853 3.609941 31.411652 8.387708
2006-05-08 07:36:28 51°16.733 2°52.944 11.4651 3.607729 31.390933 8.320289
2006-05-08 07:36:34 51°16.752 2°52.929 11.4636 3.610784 31.428523 8.320289
2006-05-08 07:36:38 51°16.764 2°52.919 11.4739 3.596879 31.302093 8.353999
2006-05-08 07:36:44 51°16.783 2°52.903 11.4641 3.607835 31.414755 8.353999
2006-05-08 07:36:48 51°16.796 2°52.893 11.4643 3.606465 31.404861 8.353999
2006-05-08 07:36:52 51°16.808 2°52.883 11.4675 3.606465 31.404861 8.353999
2006-05-08 07:36:55 51°16.818 2°52.875 11.4655 3.594562 31.291718 8.28658
2006-05-08 07:37:04 51°16.847 2°52.853 11.4573 3.59867 31.334134 8.252871
2006-05-08 07:37:08 51°16.86 2°52.844 11.4431 3.595405 31.310574 8.252871
2006-05-08 07:37:11 51°16.869 2°52.837 11.4518 3.604675 31.402296 8.252871
2006-05-08 07:37:18 51°16.892 2°52.821 11.4466 3.602884 31.388318 8.219161
2006-05-08 07:37:24 51°16.911 2°52.807 11.4329 3.602884 31.388318 8.219161
2006-05-08 07:37:28 51°16.924 2°52.797 11.4341 3.607203 31.433491 8.252871
2006-05-08 07:37:32 51°16.937 2°52.788 11.4348 3.591297 31.28086 8.219161
2006-05-08 07:37:38 51°16.956 2°52.774 11.4361 3.607624 31.440933 8.219161
2006-05-08 07:37:44 51°16.976 2°52.759 11.4319 3.603727 31.409236 8.185452
2006-05-08 07:37:48 51°16.989 2°52.749 11.4123 3.605728 31.432655 8.151742
2006-05-08 07:37:54 51°17.008 2°52.735 11.411 3.605728 31.432655 8.151742
2006-05-08 07:37:58 51°17.021 2°52.725 11.4096 3.590454 31.291443 8.118033
2006-05-08 07:38:04 51°17.041 2°52.711 11.4022 3.604991 31.436947 8.151742
2006-05-08 07:38:08 51°17.054 2°52.701 11.3923 3.599513 31.386562 8.151742
2006-05-08 07:38:14 51°17.073 2°52.686 11.399 3.606993 31.46173 8.118033
2006-05-08 07:38:17 51°17.083 2°52.679 11.3825 3.601515 31.412006 8.084324
2006-05-08 07:38:24 51°17.106 2°52.662 11.3896 3.601515 31.412006 8.084324
2006-05-08 07:38:28 51°17.119 2°52.653 11.3656 3.608257 31.48207 8.118033
2006-05-08 07:38:34 51°17.139 2°52.641 11.3744 3.605623 31.460581 8.084324
2006-05-08 07:38:38 51°17.152 2°52.633 11.3623 3.605834 31.470038 8.084324
2006-05-08 07:38:44 51°17.172 2°52.622 11.3696 3.592877 31.34979 8.084324
2006-05-08 07:38:47 51°17.183 2°52.616 11.3442 3.602253 31.446759 8.084324
2006-05-08 07:38:52 51°17.2 2°52.607 11.3458 3.602253 31.446759 8.084324
2006-05-08 07:38:59 51°17.224 2°52.595 11.3361 3.603201 31.459327 8.084324
2006-05-08 07:39:03 51°17.238 2°52.587 11.3236 3.602253 31.457547 8.118033
2006-05-08 07:39:08 51°17.254 2°52.578 11.3191 3.604465 31.484414 8.118033
2006-05-08 07:39:12 51°17.268 2°52.571 11.3131 3.613735 31.579149 8.084324
2006-05-08 07:39:16 51°17.282 2°52.563 11.3211 3.61047 31.552175 8.084324
2006-05-08 07:39:24 51°17.309 2°52.547 11.32 3.61047 31.552175 8.084324
2006-05-08 07:39:28 51°17.322 2°52.539 11.3229 3.609416 31.551421 8.118033
2006-05-08 07:39:32 51°17.336 2°52.532 11.301 3.611734 31.580035 8.118033
2006-05-08 07:39:36 51°17.349 2°52.524 11.2978 3.61816 31.649957 8.084324
2006-05-08 07:39:43 51°17.373 2°52.51 11.2836 3.618476 31.659828 8.050614
2006-05-08 07:39:47 51°17.387 2°52.502 11.2798 3.614368 31.63007 8.050614
2006-05-08 07:39:54 51°17.411 2°52.488 11.2797 3.614368 31.63007 8.050614
2006-05-08 07:39:58 51°17.424 2°52.481 11.272 3.61795 31.666268 8.084324
2006-05-08 07:40:03 51°17.442 2°52.471 11.2837 3.611734 31.608533 8.050614
2006-05-08 07:40:07 51°17.456 2°52.464 11.2714 3.615843 31.653935 8.050614
2006-05-08 07:40:14 51°17.48 2°52.452 11.2612 3.616686 31.66758 8.084324
2006-05-08 07:40:19 51°17.497 2°52.444 11.2537 3.614368 31.654555 8.050614
2006-05-08 07:40:24 51°17.514 2°52.438 11.2581 3.614368 31.654555 8.050614
2006-05-08 07:40:28 51°17.528 2°52.433 11.261 3.60731 31.591303 8.050614
2006-05-08 07:40:32 51°17.543 2°52.429 11.2477 3.610787 31.633301 8.050614
2006-05-08 07:40:39 51°17.568 2°52.424 11.2374 3.614685 31.671934 8.084324
2006-05-08 07:40:44 51°17.586 2°52.42 11.2425 3.612788 31.655513 8.084324
2006-05-08 07:40:48 51°17.6 2°52.417 11.2335 3.613736 31.666108 8.118033
2006-05-08 07:40:54 51°17.621 2°52.414 11.2388 3.613736 31.666108 8.118033
2006-05-08 07:40:58 51°17.636 2°52.411 11.2181 3.61005 31.637012 8.084324
2006-05-08 07:41:04 51°17.657 2°52.408 11.2136 3.615422 31.692752 8.050614
2006-05-08 07:41:08 51°17.672 2°52.406 11.2078 3.613315 31.675636 8.084324
2006-05-08 07:41:12 51°17.686 2°52.404 11.2088 3.615317 31.701962 8.118033
2006-05-08 07:41:19 51°17.712 2°52.4 11.2115 3.616476 31.720086 8.084324
2006-05-08 07:41:23 51°17.726 2°52.397 11.2202 3.616476 31.720086 8.084324
2006-05-08 07:41:28 51°17.744 2°52.394 11.2147 3.613948 31.698172 8.151742
2006-05-08 07:41:32 51°17.758 2°52.392 11.2137 3.608364 31.645118 8.118033
2006-05-08 07:41:39 51°17.784 2°52.388 11.2058 3.610155 31.672806 8.151742
2006-05-08 07:41:43 51°17.798 2°52.386 11.2111 3.604783 31.62861 8.185452
2006-05-08 07:41:47 51°17.813 2°52.384 11.2225 3.604256 31.628247 8.185452
2006-05-08 07:41:54 51°17.838 2°52.38 11.2199 3.604256 31.628247 8.185452
2006-05-08 07:41:56 51°17.845 2°52.38 11.2189 3.613211 31.716264 8.185452
2006-05-08 07:42:04 51°17.874 2°52.377 11.2327 3.612578 31.70873 8.185452
2006-05-08 07:42:08 51°17.889 2°52.376 11.2291 3.600675 31.592642 8.185452
2006-05-08 07:42:12 51°17.903 2°52.374 11.2271 3.611525 31.699821 8.219161
2006-05-08 07:42:16 51°17.918 2°52.372 11.2292 3.610472 31.691596 8.219161
2006-05-08 07:42:23 51°17.943 2°52.369 11.2236 3.610472 31.691596 8.219161
2006-05-08 07:42:27 51°17.958 2°52.367 11.2186 3.608997 31.675843 8.219161
2006-05-08 07:42:34 51°17.983 2°52.364 11.2185 3.608997 31.674478 8.252871
2006-05-08 07:42:38 51°17.998 2°52.362 11.2048 3.598463 31.567672 8.252871
2006-05-08 07:42:44 51°18.02 2°52.359 11.2087 3.600991 31.589594 8.252871
2006-05-08 07:42:48 51°18.034 2°52.356 11.2112 3.605942 31.636499 8.28658
2006-05-08 07:42:52 51°18.048 2°52.354 11.2173 3.605942 31.636499 8.28658
2006-05-08 07:42:59 51°18.074 2°52.351 11.2217 3.600464 31.581057 8.28658
2006-05-08 07:43:04 51°18.092 2°52.35 11.2251 3.592037 31.502328 8.320289
2006-05-08 07:43:08 51°18.107 2°52.349 11.2318 3.597199 31.556031 8.28658
2006-05-08 07:43:14 51°18.129 2°52.349 11.2293 3.599305 31.579972 8.320289
2006-05-08 07:43:19 51°18.147 2°52.349 11.2341 3.605521 31.64535 8.320289
2006-05-08 07:43:24 51°18.165 2°52.349 11.2359 3.605521 31.64535 8.320289
2006-05-08 07:43:27 51°18.176 2°52.349 11.2377 3.590984 31.504286 8.320289
2006-05-08 07:43:34 51°18.202 2°52.35 11.2442 3.591089 31.503954 8.421418
2006-05-08 07:43:39 51°18.22 2°52.351 11.2474 3.601623 31.602567 8.421418
2006-05-08 07:43:44 51°18.238 2°52.352 11.242 3.598568 31.56938 8.387708
2006-05-08 07:43:48 51°18.253 2°52.352 11.244 3.600464 31.583099 8.421418
2006-05-08 07:43:54 51°18.275 2°52.353 11.2521 3.600464 31.583099 8.421418
2006-05-08 07:43:58 51°18.29 2°52.354 11.2553 3.597093 31.548204 8.455127
2006-05-08 07:44:04 51°18.311 2°52.355 11.2623 3.5992 31.566015 8.421418
2006-05-08 07:44:08 51°18.326 2°52.355 11.2634 3.589614 31.471938 8.455127
2006-05-08 07:44:14 51°18.348 2°52.356 11.2633 3.58993 31.472304 8.455127
2006-05-08 07:44:18 51°18.362 2°52.356 11.2678 3.594565 31.514739 8.522546
2006-05-08 07:44:24 51°18.384 2°52.356 11.2633 3.594565 31.514739 8.522546
2006-05-08 07:44:28 51°18.399 2°52.356 11.2517 3.598989 31.557162 8.522546
2006-05-08 07:44:34 51°18.42 2°52.357 11.2483 3.589087 31.457318 8.556255
2006-05-08 07:44:35 51°18.424 2°52.356 11.2364 3.597304 31.533948 8.556255
2006-05-08 07:44:44 51°18.457 2°52.356 11.2296 3.583609 31.397221 8.556255
2006-05-08 07:44:47 51°18.468 2°52.356 11.2263 3.596671 31.521682 8.556255
2006-05-08 07:44:54 51°18.494 2°52.355 11.2219 3.596671 31.521682 8.556255
2006-05-08 07:44:59 51°18.512 2°52.355 11.2283 3.596039 31.513491 8.623674
2006-05-08 07:45:04 51°18.53 2°52.355 11.2318 3.594881 31.502209 8.623674
2006-05-08 07:45:07 51°18.541 2°52.355 11.2375 3.59309 31.489519 8.623674
2006-05-08 07:45:14 51°18.567 2°52.355 11.2407 3.596145 31.526057 8.623674
2006-05-08 07:45:17 51°18.578 2°52.355 11.2424 3.591405 31.488026 8.657383
2006-05-08 07:45:24 51°18.603 2°52.356 11.2455 3.591405 31.488026 8.657383
2006-05-08 07:45:28 51°18.618 2°52.356 11.2467 3.590773 31.486618 8.657383
2006-05-08 07:45:31 51°18.629 2°52.356 11.2481 3.598568 31.565978 8.724802
2006-05-08 07:45:39 51°18.658 2°52.356 11.2487 3.598357 31.563924 8.691093
2006-05-08 07:45:44 51°18.677 2°52.356 11.2499 3.599095 31.56839 8.724802
2006-05-08 07:45:47 51°18.688 2°52.356 11.2499 3.597198 31.547871 8.758512
2006-05-08 07:45:54 51°18.713 2°52.356 11.244 3.597198 31.547871 8.758512
2006-05-08 07:45:59 51°18.731 2°52.355 11.248 3.584242 31.418258 8.758512
2006-05-08 07:46:04 51°18.75 2°52.355 11.2403 3.582556 31.398463 8.792221
2006-05-08 07:46:07 51°18.761 2°52.355 11.2373 3.587402 31.445647 8.82593
2006-05-08 07:46:14 51°18.786 2°52.354 11.2309 3.589403 31.463784 8.82593
2006-05-08 07:46:17 51°18.798 2°52.354 11.2311 3.595302 31.521243 8.85964
2006-05-08 07:46:24 51°18.823 2°52.354 11.2319 3.595302 31.521243 8.85964
2006-05-08 07:46:27 51°18.834 2°52.355 11.2189 3.582767 31.399161 8.85964
2006-05-08 07:46:34 51°18.86 2°52.355 11.2343 3.593933 31.508582 8.85964
2006-05-08 07:46:38 51°18.875 2°52.356 11.2303 3.59151 31.486338 8.893349
2006-05-08 07:46:44 51°18.897 2°52.356 11.2258 3.592247 31.497592 8.927059
2006-05-08 07:46:48 51°18.911 2°52.356 11.2127 3.596356 31.538979 8.960768
2006-05-08 07:46:54 51°18.933 2°52.356 11.2174 3.596356 31.538979 8.960768
2006-05-08 07:46:58 51°18.948 2°52.356 11.2186 3.587191 31.451049 8.927059
2006-05-08 07:47:04 51°18.97 2°52.356 11.2202 3.59604 31.541337 8.960768
2006-05-08 07:47:08 51°18.985 2°52.356 11.2249 3.593406 31.518389 8.994477
2006-05-08 07:47:14 51°19.007 2°52.355 11.2242 3.595513 31.538243 9.028187
2006-05-08 07:47:18 51°19.021 2°52.355 11.2184 3.594249 31.527282 9.028187
2006-05-08 07:47:24 51°19.044 2°52.355 11.2243 3.594249 31.527282 9.028187
2006-05-08 07:47:29 51°19.062 2°52.354 11.2304 3.594986 31.537188 9.028187
2006-05-08 07:47:34 51°19.08 2°52.354 11.2256 3.592774 31.519024 9.129315
2006-05-08 07:47:38 51°19.095 2°52.354 11.2247 3.581187 31.406104 9.095606
2006-05-08 07:47:44 51°19.117 2°52.354 11.2208 3.587191 31.46461 9.095606
2006-05-08 07:47:49 51°19.136 2°52.353 11.2177 3.596883 31.558392 9.129315
2006-05-08 07:47:54 51°19.154 2°52.353 11.2278 3.596883 31.558392 9.129315
2006-05-08 07:47:58 51°19.169 2°52.353 11.2159 3.596145 31.553245 9.129315
2006-05-08 07:48:04 51°19.191 2°52.353 11.2125 3.592458 31.514584 9.129315
2006-05-08 07:48:09 51°19.21 2°52.353 11.2098 3.594144 31.528974 9.163024
2006-05-08 07:48:14 51°19.228 2°52.353 11.219 3.595197 31.539242 9.230443
2006-05-08 07:48:18 51°19.243 2°52.353 11.2199 3.595408 31.541975 9.230443
2006-05-08 07:48:24 51°19.265 2°52.352 11.2265 3.595408 31.541975 9.230443
2006-05-08 07:48:29 51°19.284 2°52.351 11.2293 3.594565 31.53648 9.230443
2006-05-08 07:48:34 51°19.302 2°52.351 11.2332 3.597725 31.56865 9.230443
2006-05-08 07:48:38 51°19.317 2°52.35 11.2218 3.597409 31.56693 9.264153
2006-05-08 07:48:44 51°19.339 2°52.349 11.2245 3.595724 31.553899 9.264153
2006-05-08 07:48:48 51°19.354 2°52.349 11.2207 3.586349 31.462502 9.297862
2006-05-08 07:48:54 51°19.377 2°52.348 11.2194 3.586349 31.462502 9.297862
2006-05-08 07:48:57 51°19.388 2°52.348 11.2125 3.59288 31.524128 9.365281
2006-05-08 07:49:04 51°19.413 2°52.347 11.2203 3.593617 31.526559 9.365281
2006-05-08 07:49:07 51°19.425 2°52.347 11.2251 3.597936 31.56594 9.365281
2006-05-08 07:49:14 51°19.451 2°52.346 11.2263 3.597515 31.561833 9.365281
2006-05-08 07:49:17 51°19.462 2°52.345 11.2214 3.597304 31.561139 9.365281
2006-05-08 07:49:24 51°19.487 2°52.344 11.226 3.597304 31.561139 9.365281
2006-05-08 07:49:28 51°19.502 2°52.343 11.229 3.597936 31.567982 9.4327
2006-05-08 07:49:34 51°19.525 2°52.341 11.2329 3.598357 31.574813 9.4327
2006-05-08 07:49:39 51°19.543 2°52.341 11.2325 3.598357 31.577536 9.466409
2006-05-08 07:49:44 51°19.562 2°52.34 11.2333 3.597831 31.57172 9.500118
2006-05-08 07:49:48 51°19.577 2°52.34 11.2365 3.59762 31.567623 9.533828
2006-05-08 07:49:54 51°19.599 2°52.339 11.2335 3.59762 31.567623 9.533828
2006-05-08 07:49:58 51°19.614 2°52.339 11.2288 3.596988 31.561461 9.567537
2006-05-08 07:50:04 51°19.636 2°52.339 11.2238 3.594986 31.540588 9.533828
2006-05-08 07:50:08 51°19.65 2°52.338 11.2221 3.596461 31.551564 9.601247
2006-05-08 07:50:12 51°19.665 2°52.338 11.215 3.594354 31.530348 9.601247
2006-05-08 07:50:18 51°19.688 2°52.338 11.2162 3.59604 31.544736 9.634956
2006-05-08 07:50:24 51°19.71 2°52.337 11.2251 3.59604 31.544736 9.634956
2006-05-08 07:50:28 51°19.725 2°52.337 11.2181 3.595302 31.536189 9.634956
2006-05-08 07:50:34 51°19.747 2°52.337 11.2279 3.59309 31.513272 9.668665
2006-05-08 07:50:38 51°19.762 2°52.337 11.2212 3.595618 31.541989 9.668665
2006-05-08 07:50:44 51°19.784 2°52.337 11.2226 3.594986 31.538548 9.668665
2006-05-08 07:50:48 51°19.799 2°52.337 11.23 3.595197 31.545362 9.736084
2006-05-08 07:50:54 51°19.821 2°52.336 11.2273 3.595197 31.545362 9.736084
2006-05-08 07:50:58 51°19.836 2°52.336 11.2242 3.594987 31.545349 9.736084
2006-05-08 07:51:04 51°19.859 2°52.337 11.2242 3.594565 31.53988 9.736084
2006-05-08 07:51:08 51°19.873 2°52.337 11.2195 3.588561 31.48067 9.736084
2006-05-08 07:51:14 51°19.896 2°52.336 11.216 3.593722 31.530305 9.769794
2006-05-08 07:51:18 51°19.911 2°52.335 11.2203 3.593406 31.527224 9.803503
2006-05-08 07:51:24 51°19.933 2°52.335 11.2223 3.593406 31.527224 9.803503
2006-05-08 07:51:28 51°19.948 2°52.334 11.2224 3.592985 31.521077 9.837212
2006-05-08 07:51:32 51°19.962 2°52.334 11.2209 3.592985 31.519718 9.837212
2006-05-08 07:51:39 51°19.989 2°52.333 11.2377 3.59288 31.52005 9.837212
2006-05-08 07:51:44 51°20.007 2°52.333 11.2306 3.585295 31.448167 9.870922
2006-05-08 07:51:48 51°20.022 2°52.333 11.2316 3.592774 31.523102 9.870922
2006-05-08 07:51:52 51°20.037 2°52.333 11.2339 3.592774 31.523102 9.870922
2006-05-08 07:51:58 51°20.06 2°52.333 11.2342 3.592774 31.523102 9.870922
2006-05-08 07:52:04 51°20.082 2°52.333 11.2359 3.592458 31.520021 9.904631
2006-05-08 07:52:08 51°20.097 2°52.333 11.2361 3.592248 31.517967 9.904631
2006-05-08 07:52:12 51°20.112 2°52.333 11.2354 3.586559 31.459807 9.938341
2006-05-08 07:52:19 51°20.138 2°52.332 11.2361 3.587402 31.464628 9.938341
2006-05-08 07:52:23 51°20.153 2°52.332 11.2307 3.587402 31.464628 9.938341
2006-05-08 07:52:28 51°20.172 2°52.331 11.2346 3.590141 31.48996 10.005759
2006-05-08 07:52:32 51°20.187 2°52.33 11.2328 3.590457 31.491683 10.005759
2006-05-08 07:52:38 51°20.209 2°52.33 11.2414 3.590246 31.486915 10.039469
2006-05-08 07:52:44 51°20.231 2°52.33 11.2467 3.587823 31.462629 10.073178
2006-05-08 07:52:47 51°20.242 2°52.33 11.2442 3.582662 31.4137 10.039469
2006-05-08 07:52:54 51°20.268 2°52.33 11.2409 3.582662 31.4137 10.039469
2006-05-08 07:52:58 51°20.283 2°52.33 11.2423 3.590562 31.489315 10.039469
2006-05-08 07:53:04 51°20.305 2°52.33 11.2408 3.590246 31.486915 10.106888
2006-05-08 07:53:08 51°20.321 2°52.33 11.2349 3.590562 31.491351 10.073178
2006-05-08 07:53:12 51°20.336 2°52.33 11.2408 3.590457 31.488289 10.106888
2006-05-08 07:53:15 51°20.347 2°52.329 11.2448 3.590141 31.482495 10.073178
2006-05-08 07:53:24 51°20.38 2°52.329 11.2329 3.590141 31.482495 10.073178
2006-05-08 07:53:28 51°20.396 2°52.329 11.2362 3.589825 31.47806 10.140597
2006-05-08 07:53:31 51°20.407 2°52.329 11.2341 3.584874 31.430508 10.140597
2006-05-08 07:53:38 51°20.433 2°52.33 11.2399 3.589403 31.473276 10.140597
2006-05-08 07:53:44 51°20.455 2°52.331 11.242 3.589403 31.475311 10.174306
2006-05-08 07:53:48 51°20.47 2°52.331 11.2386 3.589298 31.473607 10.174306
2006-05-08 07:53:54 51°20.493 2°52.331 11.2399 3.589298 31.473607 10.174306
2006-05-08 07:53:58 51°20.508 2°52.331 11.2487 3.588982 31.471884 10.174306
2006-05-08 07:54:04 51°20.53 2°52.331 11.254 3.583083 31.41645 10.208016
2006-05-08 07:54:08 51°20.545 2°52.331 11.2555 3.586559 31.450314 10.208016
2006-05-08 07:54:12 51°20.56 2°52.332 11.2613 3.58835 31.467083 10.208016
2006-05-08 07:54:18 51°20.582 2°52.332 11.262 3.587823 31.460595 10.208016
2006-05-08 07:54:24 51°20.604 2°52.332 11.2683 3.587823 31.460595 10.208016
2006-05-08 07:54:28 51°20.619 2°52.332 11.2794 3.587402 31.45649 10.241725
2006-05-08 07:54:32 51°20.634 2°52.332 11.2747 3.586559 31.446925 10.275435
2006-05-08 07:54:39 51°20.66 2°52.332 11.2736 3.578764 31.366948 10.275435
2006-05-08 07:54:44 51°20.679 2°52.333 11.2784 3.5854 31.428188 10.241725
2006-05-08 07:54:48 51°20.694 2°52.334 11.2819 3.584136 31.413171 10.309144
2006-05-08 07:54:51 51°20.705 2°52.334 11.2825 3.584136 31.413171 10.309144
2006-05-08 07:54:59 51°20.735 2°52.334 11.2831 3.583715 31.405009 10.275435
2006-05-08 07:55:04 51°20.753 2°52.334 11.2811 3.582556 31.388996 10.309144
2006-05-08 07:55:08 51°20.769 2°52.335 11.2838 3.583083 31.389391 10.342853
2006-05-08 07:55:11 51°20.78 2°52.335 11.2802 3.579185 31.349437 10.309144
2006-05-08 07:55:18 51°20.806 2°52.336 11.2794 3.576657 31.323491 10.309144
2006-05-08 07:55:24 51°20.828 2°52.336 11.2838 3.576657 31.323491 10.309144
2006-05-08 07:55:28 51°20.843 2°52.337 11.2825 3.581608 31.369636 10.342853
2006-05-08 07:55:34 51°20.866 2°52.337 11.2837 3.578237 31.334816 10.376563
2006-05-08 07:55:38 51°20.881 2°52.338 11.2888 3.578448 31.334842 10.342853
2006-05-08 07:55:44 51°20.903 2°52.339 11.2892 3.58087 31.358411 10.376563
2006-05-08 07:55:49 51°20.922 2°52.339 11.2818 3.58087 31.358411 10.410272
2006-05-08 07:55:54 51°20.94 2°52.34 11.2785 3.58087 31.358411 10.410272
2006-05-08 07:55:58 51°20.955 2°52.341 11.2808 3.580238 31.353612 10.410272
2006-05-08 07:56:04 51°20.977 2°52.341 11.2939 3.580028 31.350887 10.410272
2006-05-08 07:56:09 51°20.997 2°52.342 11.2972 3.577078 31.320848 10.410272
2006-05-08 07:56:14 51°21.014 2°52.342 11.2972 3.580554 31.351962 10.410272
2006-05-08 07:56:19 51°21.033 2°52.342 11.3058 3.576341 31.31098 10.410272
2006-05-08 07:56:24 51°21.052 2°52.342 11.3146 3.576341 31.31098 10.410272
2006-05-08 07:56:27 51°21.063 2°52.342 11.3275 3.581608 31.363559 10.443982
2006-05-08 07:56:34 51°21.089 2°52.343 11.3286 3.575288 31.304104 10.410272
2006-05-08 07:56:39 51°21.108 2°52.343 11.3343 3.580133 31.350563 10.443982
2006-05-08 07:56:44 51°21.127 2°52.342 11.3403 3.576025 31.305212 10.477691
2006-05-08 07:56:49 51°21.146 2°52.342 11.3497 3.574234 31.285106 10.477691
2006-05-08 07:56:54 51°21.164 2°52.342 11.3586 3.574234 31.285106 10.477691
2006-05-08 07:56:59 51°21.182 2°52.342 11.3648 3.579817 31.333327 10.477691
2006-05-08 07:57:04 51°21.201 2°52.342 11.3701 3.573286 31.26378 10.5114
2006-05-08 07:57:08 51°21.216 2°52.342 11.3699 3.575708 31.279928 10.5114
2006-05-08 07:57:12 51°21.231 2°52.342 11.3634 3.577394 31.290924 10.54511
2006-05-08 07:57:19 51°21.257 2°52.343 11.3594 3.5795 31.305338 10.578819
2006-05-08 07:57:24 51°21.275 2°52.343 11.3604 3.5795 31.305338 10.578819
2006-05-08 07:57:28 51°21.29 2°52.343 11.3606 3.577183 31.274759 10.612529
2006-05-08 07:57:30 51°21.298 2°52.343 11.3527 3.571495 31.212816 10.646238
2006-05-08 07:57:38 51°21.328 2°52.344 11.3522 3.577183 31.261997 10.679947
2006-05-08 07:57:44 51°21.35 2°52.345 11.3471 3.568229 31.170407 10.713657
2006-05-08 07:57:48 51°21.365 2°52.345 11.3494 3.577077 31.255604 10.713657
2006-05-08 07:57:54 51°21.387 2°52.346 11.3489 3.577077 31.255604 10.713657
2006-05-08 07:57:59 51°21.406 2°52.345 11.3428 3.574865 31.235476 10.747366
2006-05-08 07:58:04 51°21.424 2°52.346 11.3481 3.573917 31.226275 10.781076
2006-05-08 07:58:09 51°21.443 2°52.345 11.3546 3.572759 31.21637 10.781076
2006-05-08 07:58:14 51°21.462 2°52.346 11.3582 3.574549 31.236433 10.814785
2006-05-08 07:58:18 51°21.477 2°52.346 11.3614 3.569493 31.190039 10.814785
2006-05-08 07:58:24 51°21.499 2°52.346 11.3623 3.569493 31.190039 10.814785
2006-05-08 07:58:28 51°21.513 2°52.346 11.3659 3.561804 31.116089 10.848494
2006-05-08 07:58:34 51°21.536 2°52.346 11.3653 3.567703 31.175338 10.848494
2006-05-08 07:58:38 51°21.551 2°52.346 11.3713 3.574233 31.239404 10.848494
2006-05-08 07:58:44 51°21.573 2°52.346 11.3776 3.572021 31.215917 10.882204
2006-05-08 07:58:48 51°21.588 2°52.345 11.3827 3.572232 31.215951 10.949623
2006-05-08 07:58:54 51°21.61 2°52.346 11.3889 3.572232 31.215951 10.949623
2006-05-08 07:58:59 51°21.629 2°52.346 11.3961 3.567492 31.166599 10.949623
2006-05-08 07:59:04 51°21.647 2°52.346 11.3946 3.5716 31.204455 10.949623
2006-05-08 07:59:08 51°21.662 2°52.346 11.3969 3.556642 31.058012 10.983332
2006-05-08 07:59:13 51°21.681 2°52.346 11.3992 3.570862 31.192611 10.983332
2006-05-08 07:59:18 51°21.699 2°52.346 11.4032 3.574128 31.220945 11.050751
2006-05-08 07:59:24 51°21.722 2°52.345 11.4048 3.574128 31.220945 11.050751
2006-05-08 07:59:29 51°21.741 2°52.345 11.4 3.57497 31.22376 11.050751
2006-05-08 07:59:34 51°21.759 2°52.345 11.3933 3.57476 31.217026 11.08446
2006-05-08 07:59:39 51°21.777 2°52.345 11.3904 3.574654 31.211316 11.11817
2006-05-08 07:59:44 51°21.796 2°52.345 11.392 3.57476 31.20899 11.151879
2006-05-08 07:59:48 51°21.811 2°52.345 11.395 3.576866 31.226072 11.11817
2006-05-08 07:59:54 51°21.833 2°52.344 11.4047 3.576866 31.226072 11.11817
2006-05-08 07:59:59 51°21.852 2°52.344 11.4109 3.57813 31.23565 11.185589
2006-05-08 08:00:04 51°21.87 2°52.344 11.4086 3.575602 31.210467 11.219298
2006-05-08 08:00:09 51°21.889 2°52.343 11.4137 3.578657 31.241428 11.219298
2006-05-08 08:00:14 51°21.907 2°52.343 11.4131 3.578868 31.246822 11.185589
2006-05-08 08:00:19 51°21.926 2°52.343 11.4164 3.580132 31.261094 11.219298
2006-05-08 08:00:24 51°21.945 2°52.344 11.4251 3.580132 31.261094 11.219298
2006-05-08 08:00:29 51°21.964 2°52.344 11.4266 3.57971 31.255666 11.219298
2006-05-08 08:00:31 51°21.971 2°52.344 11.43 3.581817 31.270734 11.219298
2006-05-08 08:00:39 51°22.002 2°52.345 11.4369 3.580132 31.250367 11.253007
2006-05-08 08:00:43 51°22.017 2°52.345 11.4421 3.581606 31.261986 11.286717
2006-05-08 08:00:47 51°22.031 2°52.345 11.4497 3.580658 31.250113 11.286717
2006-05-08 08:00:54 51°22.058 2°52.346 11.4509 3.580658 31.250113 11.286717
2006-05-08 08:00:59 51°22.076 2°52.344 11.4642 3.580764 31.248455 11.354136
2006-05-08 08:01:03 51°22.091 2°52.344 11.456 3.586136 31.296515 11.320426
2006-05-08 08:01:08 51°22.11 2°52.344 11.4571 3.584661 31.278194 11.286717
2006-05-08 08:01:14 51°22.132 2°52.344 11.4543 3.58582 31.286744 11.320426
2006-05-08 08:01:18 51°22.147 2°52.344 11.4491 3.587926 31.30247 11.354136
2006-05-08 08:01:24 51°22.17 2°52.344 11.4536 3.587926 31.30247 11.354136
2006-05-08 08:01:28 51°22.185 2°52.344 11.4541 3.588558 31.30256 11.387845
2006-05-08 08:01:34 51°22.207 2°52.343 11.4461 3.589296 31.304341 11.387845
2006-05-08 08:01:38 51°22.222 2°52.343 11.4398 3.589928 31.305772 11.387845
2006-05-08 08:01:43 51°22.241 2°52.344 11.4366 3.59056 31.309213 11.421554
2006-05-08 08:01:47 51°22.256 2°52.343 11.4334 3.591508 31.319739 11.421554
2006-05-08 08:01:54 51°22.282 2°52.343 11.4198 3.591508 31.319739 11.421554
2006-05-08 08:01:57 51°22.294 2°52.343 11.4171 3.592456 31.330266 11.455264
2006-05-08 08:02:04 51°22.319 2°52.342 11.4044 3.592982 31.33604 11.421554
2006-05-08 08:02:09 51°22.338 2°52.342 11.3955 3.594036 31.346919 11.455264
2006-05-08 08:02:10 51°22.342 2°52.342 11.3963 3.595089 31.361157 11.421554
2006-05-08 08:02:19 51°22.376 2°52.342 11.3885 3.595827 31.370991 11.488973
2006-05-08 08:02:24 51°22.394 2°52.342 11.3864 3.595827 31.370991 11.488973
2006-05-08 08:02:28 51°22.409 2°52.342 11.3882 3.59688 31.385909 11.522683
2006-05-08 08:02:34 51°22.432 2°52.342 11.3892 3.597828 31.402501 11.488973
2006-05-08 08:02:39 51°22.451 2°52.342 11.3896 3.598777 31.416409 11.522683
2006-05-08 08:02:44 51°22.469 2°52.341 11.3906 3.599725 31.435038 11.522683
2006-05-08 08:02:47 51°22.481 2°52.341 11.3921 3.600146 31.443847 11.556392
2006-05-08 08:02:54 51°22.507 2°52.341 11.3845 3.600146 31.443847 11.556392
2006-05-08 08:02:59 51°22.525 2°52.342 11.3825 3.600357 31.451287 11.556392
2006-05-08 08:03:03 51°22.54 2°52.343 11.3856 3.600252 31.455663 11.590101
2006-05-08 08:03:07 51°22.555 2°52.343 11.3723 3.600673 31.460428 11.590101
2006-05-08 08:03:14 51°22.581 2°52.343 11.3712 3.600462 31.459733 11.623811
2006-05-08 08:03:19 51°22.6 2°52.344 11.3699 3.600462 31.458383 11.623811
2006-05-08 08:03:24 51°22.618 2°52.344 11.3698 3.600462 31.458383 11.623811
2006-05-08 08:03:28 51°22.633 2°52.344 11.3666 3.600357 31.458035 11.590101
2006-05-08 08:03:34 51°22.656 2°52.345 11.3752 3.600673 31.462453 11.65752
2006-05-08 08:03:39 51°22.674 2°52.346 11.3618 3.600884 31.466524 11.65752
2006-05-08 08:03:44 51°22.693 2°52.347 11.3558 3.601305 31.474668 11.65752
2006-05-08 08:03:47 51°22.704 2°52.347 11.3494 3.601727 31.482138 11.623811
2006-05-08 08:03:54 51°22.731 2°52.348 11.3404 3.601727 31.482138 11.623811
2006-05-08 08:03:58 51°22.746 2°52.348 11.3372 3.601305 31.479397 11.69123
2006-05-08 08:04:04 51°22.768 2°52.349 11.3478 3.601411 31.481772 11.69123
2006-05-08 08:04:08 51°22.783 2°52.35 11.3627 3.6012 31.481077 11.724939
2006-05-08 08:04:14 51°22.806 2°52.351 11.3769 3.601095 31.482081 11.724939
2006-05-08 08:04:18 51°22.821 2°52.351 11.3951 3.601621 31.491254 11.69123
2006-05-08 08:04:23 51°22.84 2°52.352 11.4062 3.601621 31.491254 11.69123
2006-05-08 08:04:27 51°22.854 2°52.352 11.4214 3.602148 31.503813 11.792358
2006-05-08 08:04:34 51°22.881 2°52.353 11.437 3.602464 31.512299 11.792358
2006-05-08 08:04:39 51°22.9 2°52.354 11.4513 3.601832 31.510217 11.792358
2006-05-08 08:04:43 51°22.915 2°52.355 11.468 3.600779 31.495917 11.826067
2006-05-08 08:04:47 51°22.93 2°52.356 11.4807 3.598777 31.468353 11.826067
2006-05-08 08:04:54 51°22.956 2°52.356 11.4922 3.598777 31.468353 11.826067
2006-05-08 08:04:59 51°22.976 2°52.356 11.4986 3.597513 31.442567 11.893486
2006-05-08 08:05:03 51°22.991 2°52.356 11.5055 3.596038 31.414086 11.826067
2006-05-08 08:05:09 51°23.013 2°52.357 11.5132 3.594774 31.38835 11.859777
2006-05-08 08:05:14 51°23.032 2°52.357 11.5188 3.593826 31.369063 11.859777
2006-05-08 08:05:18 51°23.047 2°52.358 11.5244 3.592561 31.340012 11.859777
2006-05-08 08:05:24 51°23.07 2°52.358 11.5268 3.592561 31.340012 11.859777
2006-05-08 08:05:28 51°23.085 2°52.358 11.5291 3.591929 31.320468 11.893486
2006-05-08 08:05:34 51°23.108 2°52.359 11.5311 3.590981 31.298552 11.859777
2006-05-08 08:05:39 51°23.126 2°52.359 11.5309 3.590033 31.279331 11.893486
2006-05-08 08:05:43 51°23.142 2°52.36 11.5352 3.591086 31.281497 11.927195
2006-05-08 08:05:48 51°23.161 2°52.36 11.5378 3.59098 31.273789 11.893486
2006-05-08 08:05:54 51°23.184 2°52.361 11.5396 3.59098 31.273789 11.893486
2006-05-08 08:05:59 51°23.202 2°52.362 11.5369 3.59098 31.267104 11.927195
2006-05-08 08:06:04 51°23.221 2°52.362 11.5344 3.590875 31.261407 11.960905
2006-05-08 08:06:08 51°23.237 2°52.362 11.5382 3.592034 31.268605 11.960905
2006-05-08 08:06:14 51°23.259 2°52.363 11.5398 3.592771 31.273063 11.960905
2006-05-08 08:06:19 51°23.278 2°52.364 11.5423 3.592982 31.272427 12.028324
2006-05-08 08:06:24 51°23.297 2°52.364 11.5477 3.592982 31.272427 12.028324
2006-05-08 08:06:29 51°23.317 2°52.365 11.5547 3.593508 31.274848 11.960905
2006-05-08 08:06:34 51°23.335 2°52.365 11.5596 3.592982 31.267751 11.994614
2006-05-08 08:06:38 51°23.351 2°52.366 11.567 3.592876 31.266733 12.028324
2006-05-08 08:06:43 51°23.37 2°52.366 11.5783 3.593719 31.27488 12.028324
2006-05-08 08:06:48 51°23.389 2°52.366 11.5859 3.593298 31.268802 12.028324
2006-05-08 08:06:54 51°23.412 2°52.368 11.5907 3.593298 31.268802 12.028324
2006-05-08 08:06:59 51°23.431 2°52.368 11.6003 3.594035 31.273927 12.062033
2006-05-08 08:07:04 51°23.45 2°52.369 11.6002 3.593087 31.262091 12.062033
2006-05-08 08:07:09 51°23.47 2°52.37 11.6028 3.593297 31.259455 12.062033
2006-05-08 08:07:14 51°23.488 2°52.371 11.6009 3.593508 31.255484 12.062033
2006-05-08 08:07:19 51°23.507 2°52.371 11.5982 3.592033 31.2339 12.095742
2006-05-08 08:07:24 51°23.527 2°52.371 11.597 3.592033 31.2339 12.095742
2006-05-08 08:07:29 51°23.546 2°52.373 11.5924 3.590032 31.20724 12.095742
2006-05-08 08:07:34 51°23.565 2°52.373 11.5909 3.593718 31.236182 12.095742
2006-05-08 08:07:39 51°23.584 2°52.374 11.5842 3.590874 31.202729 12.062033
2006-05-08 08:07:43 51°23.599 2°52.374 11.5817 3.588557 31.17637 12.129452
2006-05-08 08:07:48 51°23.619 2°52.375 11.5806 3.590242 31.191306 12.095742
2006-05-08 08:07:54 51°23.642 2°52.376 11.5797 3.590242 31.191306 12.095742
2006-05-08 08:07:59 51°23.661 2°52.377 11.575 3.592033 31.20726 12.129452
2006-05-08 08:08:04 51°23.68 2°52.377 11.5671 3.592665 31.214691 12.095742
2006-05-08 08:08:09 51°23.7 2°52.378 11.567 3.593402 31.223806 12.095742
2006-05-08 08:08:14 51°23.718 2°52.379 11.5672 3.59277 31.221034 12.129452
2006-05-08 08:08:19 51°23.738 2°52.38 11.5706 3.592981 31.225065 12.163161
2006-05-08 08:08:24 51°23.757 2°52.38 11.5732 3.592981 31.225065 12.163161
2006-05-08 08:08:28 51°23.772 2°52.38 11.572 3.591928 31.218224 12.163161
2006-05-08 08:08:32 51°23.788 2°52.381 11.5689 3.593613 31.235165 12.196871
2006-05-08 08:08:37 51°23.807 2°52.383 11.5677 3.593402 31.237129 12.163161
2006-05-08 08:08:44 51°23.834 2°52.384 11.5685 3.59277 31.235023 12.196871
2006-05-08 08:08:49 51°23.853 2°52.385 11.5646 3.593824 31.246531 12.196871
2006-05-08 08:08:54 51°23.872 2°52.385 11.562 3.593824 31.246531 12.196871
2006-05-08 08:08:58 51°23.887 2°52.386 11.5636 3.593297 31.241444 12.196871
2006-05-08 08:09:03 51°23.906 2°52.386 11.5565 3.593824 31.245864 12.196871
2006-05-08 08:09:08 51°23.925 2°52.386 11.5533 3.592244 31.230603 12.196871
2006-05-08 08:09:13 51°23.945 2°52.386 11.5447 3.59256 31.236321 12.264289
2006-05-08 08:09:18 51°23.963 2°52.386 11.5391 3.593086 31.240742 12.297999
2006-05-08 08:09:23 51°23.982 2°52.386 11.5168 3.593086 31.240742 12.297999
2006-05-08 08:09:27 51°23.997 2°52.385 11.4799 3.594351 31.254954 12.23058
2006-05-08 08:09:34 51°24.023 2°52.386 11.4514 3.59414 31.254252 12.23058
2006-05-08 08:09:39 51°24.042 2°52.386 11.3907 3.594245 31.256604 12.264289
2006-05-08 08:09:43 51°24.057 2°52.387 11.3311 3.594772 31.26503 12.264289
2006-05-08 08:09:47 51°24.072 2°52.387 11.2976 3.595404 31.274475 12.264289
2006-05-08 08:09:54 51°24.098 2°52.386 11.2643 3.595404 31.274475 12.264289
2006-05-08 08:09:59 51°24.116 2°52.387 11.2292 3.596352 31.290986 12.264289
2006-05-08 08:10:03 51°24.13 2°52.388 11.1877 3.598459 31.323393 12.331708
2006-05-08 08:10:07 51°24.145 2°52.389 11.1747 3.603621 31.398813 12.331708
2006-05-08 08:10:14 51°24.171 2°52.391 11.1688 3.609942 31.487623 12.365418
2006-05-08 08:10:19 51°24.189 2°52.393 11.1335 3.617633 31.609546 12.399127
2006-05-08 08:10:23 51°24.204 2°52.394 11.1145 3.617633 31.609546 12.399127
2006-05-08 08:10:27 51°24.218 2°52.395 11.0674 3.62427 31.714813 12.399127
2006-05-08 08:10:34 51°24.244 2°52.394 11.0517 3.629011 31.800542 12.399127
2006-05-08 08:10:39 51°24.262 2°52.394 11.0169 3.632804 31.878628 12.399127
2006-05-08 08:10:43 51°24.277 2°52.393 11.0211 3.636281 31.937998 12.399127
2006-05-08 08:10:48 51°24.295 2°52.393 11.0379 3.638494 31.987187 12.432836
2006-05-08 08:10:54 51°24.317 2°52.395 11.0521 3.638494 31.987187 12.432836
2006-05-08 08:10:55 51°24.32 2°52.395 11.0785 3.640179 32.024397 12.399127
2006-05-08 08:11:04 51°24.354 2°52.396 11.0903 3.645342 32.102627 12.432836
2006-05-08 08:11:09 51°24.373 2°52.396 11.1108 3.651663 32.201428 12.432836
2006-05-08 08:11:14 51°24.391 2°52.397 11.1269 3.654719 32.260721 12.466546
2006-05-08 08:11:19 51°24.409 2°52.398 11.1386 3.656826 32.296103 12.432836
2006-05-08 08:11:24 51°24.428 2°52.399 11.1443 3.656826 32.296103 12.432836
2006-05-08 08:11:28 51°24.442 2°52.399 11.1612 3.655351 32.285118 12.399127
2006-05-08 08:11:31 51°24.453 2°52.4 11.1704 3.652612 32.251922 12.432836
2006-05-08 08:11:39 51°24.483 2°52.401 11.183 3.649557 32.210754 12.432836
2006-05-08 08:11:44 51°24.502 2°52.401 11.1894 3.646607 32.165079 12.466546
2006-05-08 08:11:49 51°24.521 2°52.403 11.1978 3.643657 32.120847 12.466546
2006-05-08 08:11:54 51°24.539 2°52.403 11.2143 3.643657 32.120847 12.466546
2006-05-08 08:11:59 51°24.557 2°52.404 11.2066 3.641444 32.088051 12.466546
2006-05-08 08:12:03 51°24.572 2°52.404 11.2098 3.639548 32.056296 12.432836
2006-05-08 08:12:07 51°24.587 2°52.404 11.2095 3.637651 32.024569 12.466546
2006-05-08 08:12:14 51°24.613 2°52.404 11.2011 3.636598 32.003882 12.500255
2006-05-08 08:12:19 51°24.631 2°52.404 11.2083 3.635334 31.981149 12.500255
2006-05-08 08:12:23 51°24.646 2°52.404 11.2105 3.635334 31.981149 12.500255
2006-05-08 08:12:27 51°24.661 2°52.405 11.2079 3.634596 31.96289 12.500255
2006-05-08 08:12:34 51°24.687 2°52.404 11.2053 3.633437 31.943286 12.500255
2006-05-08 08:12:39 51°24.705 2°52.403 11.2022 3.632805 31.932284 12.533965
2006-05-08 08:12:43 51°24.72 2°52.403 11.2142 3.632594 31.927469 12.533965
2006-05-08 08:12:47 51°24.735 2°52.403 11.207 3.632805 31.930905 12.533965
2006-05-08 08:12:54 51°24.761 2°52.404 11.2141 3.632805 31.930905 12.533965
2006-05-08 08:12:59 51°24.78 2°52.405 11.2215 3.633016 31.931586 12.567674
2006-05-08 08:13:03 51°24.794 2°52.405 11.2107 3.632594 31.927469 12.533965
2006-05-08 08:13:08 51°24.813 2°52.407 11.1978 3.632805 31.930905 12.601383
2006-05-08 08:13:13 51°24.831 2°52.407 11.1942 3.633121 31.933993 12.601383
2006-05-08 08:13:19 51°24.854 2°52.409 11.179 3.632805 31.930216 12.601383
2006-05-08 08:13:24 51°24.872 2°52.409 11.1799 3.632805 31.930216 12.601383
2006-05-08 08:13:27 51°24.883 2°52.41 11.1867 3.631751 31.917168 12.500255
2006-05-08 08:13:34 51°24.909 2°52.41 11.1902 3.630803 31.905841 12.567674
2006-05-08 08:13:39 51°24.927 2°52.411 11.1978 3.630382 31.900348 12.601383
2006-05-08 08:13:43 51°24.942 2°52.41 11.2061 3.631225 31.912711 12.635093
2006-05-08 08:13:47 51°24.957 2°52.411 11.2121 3.632067 31.925767 12.635093
2006-05-08 08:13:54 51°24.983 2°52.41 11.2155 3.632067 31.925767 12.635093
2006-05-08 08:13:59 51°25.002 2°52.41 11.2125 3.6327 31.939526 12.635093
2006-05-08 08:14:03 51°25.017 2°52.411 11.2133 3.632384 31.939884 12.567674
2006-05-08 08:14:07 51°25.031 2°52.411 11.2125 3.631962 31.935766 12.635093
2006-05-08 08:14:14 51°25.057 2°52.411 11.2123 3.630593 31.919623 12.635093
2006-05-08 08:14:19 51°25.076 2°52.411 11.206 3.628486 31.894901 12.601383
2006-05-08 08:14:23 51°25.09 2°52.411 11.1932 3.628486 31.894901 12.601383
2006-05-08 08:14:27 51°25.105 2°52.411 11.1824 3.62817 31.885619 12.635093
2006-05-08 08:14:34 51°25.131 2°52.411 11.1757 3.627538 31.875317 12.601383
2006-05-08 08:14:39 51°25.15 2°52.412 11.172 3.627643 31.874971 12.635093
2006-05-08 08:14:44 51°25.169 2°52.413 11.1639 3.627959 31.87737 12.635093
2006-05-08 08:14:48 51°25.183 2°52.412 11.1641 3.628802 31.886289 12.635093
2006-05-08 08:14:54 51°25.206 2°52.413 11.1576 3.628802 31.886289 12.635093
2006-05-08 08:14:59 51°25.224 2°52.414 11.1478 3.629961 31.900361 12.635093
2006-05-08 08:15:03 51°25.239 2°52.415 11.1415 3.631225 31.919599 12.702512
2006-05-08 08:15:07 51°25.254 2°52.415 11.1246 3.632805 31.942624 12.702512
2006-05-08 08:15:14 51°25.28 2°52.416 11.123 3.633964 31.962922 12.668802
2006-05-08 08:15:19 51°25.299 2°52.417 11.1205 3.634912 31.977718 12.702512
2006-05-08 08:15:23 51°25.314 2°52.418 11.1187 3.634912 31.977718 12.702512
2006-05-08 08:15:27 51°25.329 2°52.42 11.1082 3.635755 31.990107 12.702512
2006-05-08 08:15:34 51°25.355 2°52.426 11.1124 3.636492 32.00216 12.736221
2006-05-08 08:15:37 51°25.366 2°52.43 11.1198 3.63723 32.014217 12.76993
2006-05-08 08:15:43 51°25.388 2°52.438 11.1193 3.638494 32.035588 12.76993
2006-05-08 08:15:47 51°25.402 2°52.443 11.1265 3.639653 32.056634 12.736221
2006-05-08 08:15:54 51°25.427 2°52.455 11.1303 3.639653 32.056634 12.736221
2006-05-08 08:15:58 51°25.442 2°52.462 11.1342 3.641233 32.077658 12.736221
2006-05-08 08:16:04 51°25.463 2°52.473 11.1189 3.642287 32.090753 12.80364
2006-05-08 08:16:08 51°25.477 2°52.48 11.1049 3.643235 32.104903 12.736221
2006-05-08 08:16:14 51°25.498 2°52.491 11.0896 3.643656 32.107642 12.76993
2006-05-08 08:16:18 51°25.512 2°52.498 11.0836 3.643656 32.107642 12.80364
2006-05-08 08:16:23 51°25.53 2°52.506 11.0909 3.643656 32.107642 12.80364
2006-05-08 08:16:27 51°25.545 2°52.513 11.1064 3.643446 32.102105 12.76993
2006-05-08 08:16:34 51°25.569 2°52.525 11.1179 3.64334 32.097601 12.80364
2006-05-08 08:16:39 51°25.587 2°52.534 11.1411 3.644183 32.104468 12.76993
2006-05-08 08:16:43 51°25.601 2°52.541 11.1555 3.646185 32.13172 12.76993
2006-05-08 08:16:49 51°25.622 2°52.552 11.1754 3.649556 32.176589 12.76993
2006-05-08 08:16:54 51°25.64 2°52.56 11.1918 3.649556 32.176589 12.76993
2006-05-08 08:16:59 51°25.657 2°52.569 11.199 3.652506 32.213876 12.80364
2006-05-08 08:17:04 51°25.675 2°52.577 11.2063 3.653138 32.222168 12.80364
2006-05-08 08:17:08 51°25.69 2°52.584 11.2085 3.651768 32.201066 12.736221
2006-05-08 08:17:10 51°25.697 2°52.587 11.2132 3.649977 32.170972 12.736221
2006-05-08 08:17:19 51°25.729 2°52.602 11.2182 3.648713 32.143977 12.80364
2006-05-08 08:17:23 51°25.743 2°52.609 11.2212 3.648713 32.143977 12.80364
2006-05-08 08:17:27 51°25.758 2°52.616 11.2217 3.646711 32.109789 12.76993
2006-05-08 08:17:34 51°25.783 2°52.629 11.2217 3.645236 32.080789 12.702512
2006-05-08 08:17:39 51°25.801 2°52.638 11.2194 3.644077 32.059062 12.76993
2006-05-08 08:17:43 51°25.815 2°52.645 11.217 3.64355 32.044222 12.76993
2006-05-08 08:17:48 51°25.833 2°52.654 11.2125 3.643761 32.040749 12.736221
2006-05-08 08:17:54 51°25.855 2°52.664 11.2065 3.643761 32.040749 12.736221
2006-05-08 08:17:58 51°25.869 2°52.671 11.2003 3.643866 32.036247 12.76993
2006-05-08 08:18:03 51°25.887 2°52.68 11.1908 3.644287 32.035527 12.80364
2006-05-08 08:18:07 51°25.902 2°52.687 11.1892 3.64492 32.039631 12.76993
2006-05-08 08:18:14 51°25.927 2°52.7 11.178 3.645341 32.043058 12.76993
2006-05-08 08:18:19 51°25.945 2°52.708 11.1781 3.646605 32.054722 12.80364
2006-05-08 08:18:24 51°25.963 2°52.717 11.1728 3.646605 32.054722 12.80364
2006-05-08 08:18:29 51°25.982 2°52.725 11.1655 3.647132 32.063329 12.76993
2006-05-08 08:18:34 51°25.999 2°52.734 11.1579 3.647869 32.073997 12.837349
2006-05-08 08:18:39 51°26.018 2°52.743 11.1565 3.648923 32.089836 12.80364
2006-05-08 08:18:43 51°26.032 2°52.75 11.1602 3.64945 32.099837 12.80364
2006-05-08 08:18:47 51°26.047 2°52.757 11.1579 3.650187 32.114675 12.837349
2006-05-08 08:18:54 51°26.072 2°52.769 11.1679 3.650187 32.114675 12.837349
2006-05-08 08:18:58 51°26.087 2°52.776 11.1731 3.650503 32.122622 12.871059
2006-05-08 08:19:04 51°26.108 2°52.787 11.1701 3.65103 32.131939 12.837349
2006-05-08 08:19:08 51°26.123 2°52.794 11.1735 3.651452 32.142312 12.837349
2006-05-08 08:19:14 51°26.145 2°52.805 11.1764 3.651662 32.148541 12.837349
2006-05-08 08:19:18 51°26.159 2°52.812 11.1746 3.651557 32.150289 12.871059
2006-05-08 08:19:24 51°26.181 2°52.823 11.1652 3.651557 32.150289 12.871059
2006-05-08 08:19:29 51°26.199 2°52.832 11.1559 3.651346 32.147531 12.871059
2006-05-08 08:19:34 51°26.217 2°52.841 11.1474 3.650714 32.139954 12.837349
2006-05-08 08:19:39 51°26.235 2°52.85 11.1387 3.650187 32.132021 12.871059
2006-05-08 08:19:44 51°26.253 2°52.859 11.1297 3.649239 32.121352 12.871059
2006-05-08 08:19:48 51°26.267 2°52.865 11.126 3.648713 32.113422 12.904768
2006-05-08 08:19:50 51°26.275 2°52.869 11.1098 3.648713 32.113422 12.904768
2006-05-08 08:19:58 51°26.304 2°52.883 11.1019 3.64808 32.106543 12.904768
2006-05-08 08:20:04 51°26.326 2°52.892 11.0948 3.648081 32.110011 12.938477
2006-05-08 08:20:07 51°26.337 2°52.897 11.0881 3.64787 32.114887 12.904768
2006-05-08 08:20:14 51°26.363 2°52.908 11.0833 3.648081 32.123892 12.904768
2006-05-08 08:20:17 51°26.374 2°52.913 11.0846 3.648608 32.140165 12.904768
2006-05-08 08:20:23 51°26.395 2°52.922 11.0706 3.648608 32.140165 12.904768
2006-05-08 08:20:27 51°26.41 2°52.928 11.0812 3.648924 32.150213 12.904768
2006-05-08 08:20:34 51°26.435 2°52.938 11.0882 3.649556 32.166146 12.938477
2006-05-08 08:20:39 51°26.453 2°52.947 11.0924 3.649977 32.177238 12.938477
2006-05-08 08:20:43 51°26.467 2°52.953 11.1016 3.649978 32.184203 12.938477
2006-05-08 08:20:47 51°26.482 2°52.96 11.1059 3.650083 32.192902 12.938477
2006-05-08 08:20:54 51°26.507 2°52.971 11.1068 3.650083 32.192902 12.938477
2006-05-08 08:20:59 51°26.525 2°52.979 11.1103 3.650399 32.20158 12.938477
2006-05-08 08:21:04 51°26.543 2°52.986 11.1061 3.650294 32.206127 12.938477
2006-05-08 08:21:09 51°26.562 2°52.995 11.0995 3.650083 32.203362 12.904768
2006-05-08 08:21:14 51°26.579 2°53.003 11.0871 3.64924 32.191608 12.938477
2006-05-08 08:21:19 51°26.597 2°53.011 11.0839 3.648187 32.177093 12.972187
2006-05-08 08:21:24 51°26.615 2°53.019 11.0576 3.648187 32.177093 12.972187
2006-05-08 08:21:28 51°26.63 2°53.025 11.0519 3.647344 32.162559 12.972187
2006-05-08 08:21:34 51°26.651 2°53.035 11.0424 3.646396 32.150479 12.972187
2006-05-08 08:21:38 51°26.666 2°53.041 11.0254 3.646185 32.146326 13.005896
2006-05-08 08:21:44 51°26.687 2°53.051 11.0242 3.646817 32.152522 12.972187
2006-05-08 08:21:48 51°26.702 2°53.057 11.0103 3.647449 32.165681 12.938477
2006-05-08 08:21:51 51°26.713 2°53.062 10.9924 3.647449 32.165681 12.938477
2006-05-08 08:21:59 51°26.742 2°53.075 11.0055 3.648714 32.185744 13.005896
2006-05-08 08:22:04 51°26.76 2°53.083 10.9919 3.650189 32.211373 13.039606
2006-05-08 08:22:07 51°26.771 2°53.088 10.9882 3.651348 32.23322 13.005896
2006-05-08 08:22:10 51°26.782 2°53.093 10.9831 3.652717 32.25995 13.073315
2006-05-08 08:22:19 51°26.814 2°53.109 10.9876 3.653771 32.277997 13.039606
2006-05-08 08:22:24 51°26.833 2°53.117 10.9873 3.653771 32.277997 13.039606
2006-05-08 08:22:29 51°26.851 2°53.125 10.9854 3.654825 32.303061 13.005896
2006-05-08 08:22:34 51°26.869 2°53.133 10.9889 3.655141 32.316688 13.005896
2006-05-08 08:22:38 51°26.883 2°53.14 10.9877 3.655562 32.325042 13.039606
2006-05-08 08:22:44 51°26.905 2°53.15 10.9888 3.655457 32.328218 13.039606
2006-05-08 08:22:49 51°26.924 2°53.159 10.9919 3.655246 32.331061 13.039606
2006-05-08 08:22:54 51°26.941 2°53.166 10.9973 3.655246 32.331061 13.039606
2006-05-08 08:22:58 51°26.956 2°53.172 11.0056 3.655246 32.333168 13.039606
2006-05-08 08:23:03 51°26.974 2°53.18 11.0096 3.65493 32.332868 13.039606
2006-05-08 08:23:07 51°26.988 2°53.185 11.0129 3.654825 32.331129 13.073315
2006-05-08 08:23:14 51°27.014 2°53.197 11.0242 3.654825 32.331832 13.073315
2006-05-08 08:23:19 51°27.032 2°53.206 11.0203 3.654509 32.32802 13.073315
2006-05-08 08:23:23 51°27.047 2°53.213 11.0243 3.654509 32.32802 13.073315
2006-05-08 08:23:27 51°27.061 2°53.22 11.0211 3.653034 32.31281 13.039606
2006-05-08 08:23:34 51°27.087 2°53.231 11.0203 3.654087 32.318258 13.039606
2006-05-08 08:23:39 51°27.105 2°53.239 11.0242 3.652086 32.294364 13.039606
2006-05-08 08:23:43 51°27.12 2°53.246 11.0229 3.653034 32.298778 13.073315
2006-05-08 08:23:47 51°27.134 2°53.251 11.0294 3.653034 32.293168 13.073315
2006-05-08 08:23:54 51°27.16 2°53.262 11.0331 3.653034 32.293168 13.073315
2006-05-08 08:23:58 51°27.174 2°53.268 11.0356 3.652718 32.285156 13.073315
2006-05-08 08:24:04 51°27.196 2°53.278 11.0394 3.652507 32.282384 13.039606
2006-05-08 08:24:09 51°27.215 2°53.286 11.042 3.652296 32.278912 13.073315
2006-05-08 08:24:14 51°27.232 2°53.294 11.0474 3.652401 32.278546 13.073315
2006-05-08 08:24:18 51°27.247 2°53.301 11.0544 3.652085 32.27544 13.073315
2006-05-08 08:24:24 51°27.269 2°53.311 11.0577 3.652085 32.27544 13.073315
2006-05-08 08:24:28 51°27.283 2°53.317 11.0705 3.651875 32.269868 13.073315
2006-05-08 08:24:34 51°27.305 2°53.327 11.0726 3.651875 32.267768 13.073315
2006-05-08 08:24:38 51°27.319 2°53.333 11.0778 3.651559 32.261163 13.073315
2006-05-08 08:24:43 51°27.337 2°53.34 11.0879 3.651032 32.253889 13.073315
2006-05-08 08:24:48 51°27.356 2°53.348 11.0879 3.651032 32.248992 13.107024
2006-05-08 08:24:54 51°27.377 2°53.358 11.089 3.651032 32.248992 13.107024
2006-05-08 08:24:57 51°27.388 2°53.362 11.1024 3.6504 32.237889 13.039606
2006-05-08 08:25:03 51°27.41 2°53.372 11.0958 3.650189 32.230927 13.073315
2006-05-08 08:25:07 51°27.425 2°53.378 11.1041 3.649662 32.220167 13.107024
2006-05-08 08:25:14 51°27.45 2°53.389 11.1035 3.649451 32.211814 13.107024
2006-05-08 08:25:19 51°27.468 2°53.398 11.1011 3.649346 32.205197 13.107024
2006-05-08 08:25:23 51°27.483 2°53.404 11.1002 3.649346 32.205197 13.107024
2006-05-08 08:25:29 51°27.505 2°53.415 11.0983 3.649451 32.200649 13.073315
2006-05-08 08:25:34 51°27.523 2°53.424 11.0984 3.649451 32.195766 13.073315
2006-05-08 08:25:38 51°27.538 2°53.43 11.0953 3.649662 32.193649 13.073315
2006-05-08 08:25:44 51°27.56 2°53.44 11.0905 3.650083 32.192902 13.107024
2006-05-08 08:25:49 51°27.579 2°53.449 11.0844 3.65061 32.196674 13.107024
2006-05-08 08:25:54 51°27.596 2°53.456 11.08 3.65061 32.196674 13.107024
2006-05-08 08:25:56 51°27.603 2°53.459 11.0813 3.65061 32.195977 13.107024
2006-05-08 08:26:04 51°27.633 2°53.472 11.08 3.650926 32.199076 13.140734
2006-05-08 08:26:09 51°27.652 2°53.48 11.0816 3.651558 32.205275 13.107024
2006-05-08 08:26:14 51°27.669 2°53.488 11.0865 3.65219 32.213566 13.174443
2006-05-08 08:26:19 51°27.687 2°53.496 11.094 3.652927 32.22359 13.140734
2006-05-08 08:26:24 51°27.706 2°53.505 11.0985 3.652927 32.22359 13.140734
2006-05-08 08:26:28 51°27.721 2°53.511 11.1083 3.653665 32.235013 13.140734
2006-05-08 08:26:32 51°27.735 2°53.518 11.1078 3.654402 32.24574 13.107024
2006-05-08 08:26:39 51°27.761 2°53.53 11.1101 3.654402 32.248534 13.107024
2006-05-08 08:26:44 51°27.779 2°53.539 11.1091 3.654402 32.247835 13.140734
2006-05-08 08:26:48 51°27.794 2°53.545 11.1164 3.654297 32.245405 13.140734
2006-05-08 08:26:53 51°27.812 2°53.554 11.1192 3.654297 32.245405 13.140734
2006-05-08 08:26:59 51°27.834 2°53.564 11.1264 3.654086 32.239147 13.174443
2006-05-08 08:27:04 51°27.852 2°53.573 11.1324 3.653138 32.224959 13.073315
2006-05-08 08:27:09 51°27.871 2°53.581 11.1394 3.652611 32.213514 13.005896
2006-05-08 08:27:14 51°27.889 2°53.589 11.1437 3.651979 32.203829 13.005896
2006-05-08 08:27:18 51°27.903 2°53.596 11.1495 3.651768 32.199672 13.107024
2006-05-08 08:27:24 51°27.926 2°53.607 11.1497 3.651768 32.199672 13.107024
2006-05-08 08:27:27 51°27.937 2°53.612 11.1539 3.651242 32.192417 13.039606
2006-05-08 08:27:34 51°27.962 2°53.624 11.1532 3.650926 32.185139 13.073315
2006-05-08 08:27:39 51°27.98 2°53.632 11.1514 3.650188 32.173037 13.005896
2006-05-08 08:27:44 51°27.998 2°53.64 11.1417 3.649345 32.159906 13.005896
2006-05-08 08:27:48 51°28.013 2°53.648 11.1357 3.648924 32.150213 13.005896
2006-05-08 08:27:54 51°28.035 2°53.658 11.1347 3.648924 32.150213 13.005896
2006-05-08 08:27:59 51°28.053 2°53.667 11.1299 3.648397 32.139491 13.005896
2006-05-08 08:28:04 51°28.071 2°53.676 11.1224 3.647975 32.1305 13.005896
2006-05-08 08:28:08 51°28.086 2°53.683 11.1214 3.648291 32.130816 13.005896
2006-05-08 08:28:14 51°28.108 2°53.694 11.1239 3.648607 32.131827 13.039606
2006-05-08 08:28:18 51°28.122 2°53.701 11.1153 3.647765 32.127742 13.039606
2006-05-08 08:28:24 51°28.144 2°53.711 11.1101 3.647765 32.127742 13.039606
2006-05-08 08:28:28 51°28.159 2°53.718 11.1177 3.650399 32.158403 12.972187
2006-05-08 08:28:32 51°28.173 2°53.725 11.1123 3.651347 32.169777 13.005896
2006-05-08 08:28:39 51°28.199 2°53.737 11.1137 3.651873 32.181201 13.039606
2006-05-08 08:28:44 51°28.217 2°53.745 11.1172 3.652716 32.192942 13.005896
2006-05-08 08:28:47 51°28.228 2°53.75 11.12 3.653032 32.198826 13.005896
2006-05-08 08:28:54 51°28.254 2°53.762 11.121 3.653032 32.198826 13.005896
2006-05-08 08:28:59 51°28.272 2°53.771 11.1228 3.653454 32.20644 13.039606
2006-05-08 08:29:04 51°28.29 2°53.778 11.1241 3.65377 32.213023 13.005896
2006-05-08 08:29:08 51°28.305 2°53.784 11.133 3.65377 32.21372 13.039606
2006-05-08 08:29:14 51°28.327 2°53.794 11.1346 3.653981 32.217181 13.039606
2006-05-08 08:29:19 51°28.345 2°53.802 11.1398 3.653665 32.21199 13.005896
2006-05-08 08:29:24 51°28.363 2°53.81 11.1392 3.653665 32.21199 13.005896
2006-05-08 08:29:27 51°28.374 2°53.815 11.1427 3.653243 32.207162 13.039606
2006-05-08 08:29:32 51°28.392 2°53.824 11.1449 3.651874 32.192343 13.005896
2006-05-08 08:29:39 51°28.417 2°53.835 11.142 3.651347 32.185091 13.005896
2006-05-08 08:29:44 51°28.436 2°53.843 11.1465 3.650609 32.173686 13.039606
2006-05-08 08:29:48 51°28.451 2°53.849 11.1429 3.650609 32.170206 13.039606
2006-05-08 08:29:53 51°28.469 2°53.858 11.1479 3.650609 32.170206 13.039606
2006-05-08 08:29:59 51°28.491 2°53.867 11.1574 3.649977 32.160534 13.005896
2006-05-08 08:30:04 51°28.508 2°53.875 11.1551 3.651241 32.170137 13.005896
2006-05-08 08:30:09 51°28.527 2°53.883 11.1573 3.65082 32.164617 13.039606
2006-05-08 08:30:14 51°28.545 2°53.891 11.1563 3.650925 32.163562 13.039606
2006-05-08 08:30:19 51°28.563 2°53.898 11.1567 3.650609 32.159076 13.039606
2006-05-08 08:30:24 51°28.581 2°53.906 11.1602 3.650609 32.159076 13.039606
2006-05-08 08:30:29 51°28.6 2°53.915 11.162 3.649556 32.147366 13.005896
2006-05-08 08:30:34 51°28.617 2°53.922 11.1659 3.649556 32.145281 13.039606
2006-05-08 08:30:36 51°28.625 2°53.926 11.1654 3.650714 32.153155 13.039606
2006-05-08 08:30:44 51°28.653 2°53.938 11.1654 3.64787 32.123912 13.005896
2006-05-08 08:30:48 51°28.668 2°53.944 11.1691 3.647765 32.121492 13.005896
2006-05-08 08:30:51 51°28.679 2°53.949 11.1729 3.647765 32.121492 13.005896
2006-05-08 08:30:59 51°28.708 2°53.962 11.1643 3.647659 32.119766 13.005896
2006-05-08 08:31:04 51°28.726 2°53.969 11.1635 3.647238 32.112864 13.039606
2006-05-08 08:31:08 51°28.74 2°53.976 11.1658 3.648081 32.119032 13.039606
2006-05-08 08:31:14 51°28.762 2°53.986 11.1641 3.648502 32.122463 13.005896
2006-05-08 08:31:19 51°28.78 2°53.994 11.1633 3.648818 32.124863 13.039606
2006-05-08 08:31:24 51°28.798 2°54.003 11.1544 3.648818 32.124863 13.039606
2006-05-08 08:31:28 51°28.812 2°54.01 11.1428 3.649977 32.132735 13.005896
2006-05-08 08:31:34 51°28.834 2°54.019 11.1278 3.651241 32.144416 13.005896
2006-05-08 08:31:38 51°28.849 2°54.027 11.1231 3.652611 32.159213 13.005896
2006-05-08 08:31:44 51°28.871 2°54.037 11.1108 3.652505 32.158876 13.005896
2006-05-08 08:31:49 51°28.889 2°54.046 11.1022 3.654507 32.179169 12.972187
2006-05-08 08:31:54 51°28.906 2°54.054 11.1073 3.654507 32.179169 12.972187
2006-05-08 08:31:56 51°28.914 2°54.057 11.093 3.657773 32.211844 13.005896
2006-05-08 08:32:04 51°28.942 2°54.071 11.0802 3.659037 32.228404 12.972187
2006-05-08 08:32:09 51°28.96 2°54.08 11.0724 3.660828 32.255707 12.972187
2006-05-08 08:32:13 51°28.975 2°54.086 11.0467 3.66304 32.286462 13.005896
2006-05-08 08:32:19 51°28.996 2°54.096 11.0358 3.666412 32.327901 12.938477
2006-05-08 08:32:24 51°29.014 2°54.104 11.0128 3.666412 32.327901 12.938477
2006-05-08 08:32:29 51°29.033 2°54.111 11.0136 3.666306 32.334563 13.005896
2006-05-08 08:32:34 51°29.05 2°54.119 11.003 3.668519 32.360466 12.938477
2006-05-08 08:32:39 51°29.068 2°54.127 11.0041 3.668519 32.371678 12.904768
2006-05-08 08:32:44 51°29.086 2°54.135 11.0001 3.671996 32.414925 12.938477
2006-05-08 08:32:49 51°29.104 2°54.143 10.9902 3.673471 32.443463 12.972187
2006-05-08 08:32:54 51°29.122 2°54.151 10.9901 3.673471 32.443463 12.972187
2006-05-08 08:32:59 51°29.14 2°54.16 10.9809 3.675051 32.47588 12.904768
2006-05-08 08:33:04 51°29.158 2°54.168 10.9725 3.676948 32.506504 12.938477
2006-05-08 08:33:07 51°29.169 2°54.173 10.9583 3.677685 32.522223 12.938477
2006-05-08 08:33:14 51°29.194 2°54.185 10.9576 3.677264 32.528666 12.972187
2006-05-08 08:33:19 51°29.212 2°54.193 10.948 3.678318 32.546098 12.938477
2006-05-08 08:33:24 51°29.23 2°54.201 10.9441 3.678318 32.546098 12.938477
2006-05-08 08:33:28 51°29.244 2°54.207 10.9436 3.678107 32.550385 12.904768
2006-05-08 08:33:34 51°29.265 2°54.217 10.9456 3.679687 32.568772 12.972187
2006-05-08 08:33:38 51°29.28 2°54.223 10.9484 3.68032 32.582781 12.972187
2006-05-08 08:33:43 51°29.298 2°54.232 10.9511 3.681584 32.604442 12.938477
2006-05-08 08:33:48 51°29.316 2°54.24 10.951 3.680004 32.597375 12.972187
2006-05-08 08:33:53 51°29.334 2°54.248 10.9547 3.680004 32.597375 12.972187
2006-05-08 08:33:58 51°29.351 2°54.256 10.9585 3.682216 32.62627 12.972187
2006-05-08 08:34:04 51°29.372 2°54.266 10.9539 3.681795 32.628503 12.972187
2006-05-08 08:34:09 51°29.391 2°54.275 10.9595 3.679583 32.608111 12.972187
2006-05-08 08:34:14 51°29.408 2°54.282 10.9609 3.681795 32.630632 13.005896
2006-05-08 08:34:18 51°29.422 2°54.289 10.9561 3.679267 32.605704 12.972187
2006-05-08 08:34:24 51°29.443 2°54.299 10.9565 3.679267 32.605704 12.972187